<?xml version="1.0" encoding="UTF-8" standalone="no" ?>
<gpx xmlns="http://www.topografix.com/GPX/1/1" xmlns:xsi="http://www.w3.org/2001/XMLSchema-instance" xsi:schemaLocation="http://www.topografix.com/GPX/1/1 http://www.topografix.com/GPX/1/1/gpx.xsd" version="1.1" creator="VisuGPX - https://www.visugpx.com">
  <metadata>
    <name>Sénaillac-Latronquière (lac de Tolerme)</name>
    <desc><![CDATA[N° 9 guide
faite 4/11/2018]]></desc>
  </metadata>
  <trk>
    <name><![CDATA[2018-11-04 12:14:15]]></name>
    <extensions>
      <line xmlns="http://www.topografix.com/GPX/gpx_style/0/2">
        <color>0000FF</color>
        <opacity>0.78</opacity>
        <width>3</width>
      </line>
    </extensions>
    <trkseg>
      <trkpt lat="44.82623" lon="2.0611">
        <ele>558.36</ele>
        <time>2018-11-04T11:14:15.000Z</time>
      </trkpt>
      <trkpt lat="44.82622" lon="2.0611">
        <ele>558.27</ele>
        <time>2018-11-04T11:15:07.000Z</time>
      </trkpt>
      <trkpt lat="44.82622" lon="2.06109">
        <ele>561.64</ele>
        <time>2018-11-04T11:15:25.000Z</time>
      </trkpt>
      <trkpt lat="44.82622" lon="2.0611">
        <ele>561.67</ele>
        <time>2018-11-04T11:16:11.000Z</time>
      </trkpt>
      <trkpt lat="44.8262" lon="2.06112">
        <ele>560.72</ele>
        <time>2018-11-04T11:16:21.000Z</time>
      </trkpt>
      <trkpt lat="44.8262" lon="2.06113">
        <ele>560.25</ele>
        <time>2018-11-04T11:16:31.000Z</time>
      </trkpt>
      <trkpt lat="44.8262" lon="2.06115">
        <ele>561.62</ele>
        <time>2018-11-04T11:16:41.000Z</time>
      </trkpt>
      <trkpt lat="44.8262" lon="2.06114">
        <ele>561.24</ele>
        <time>2018-11-04T11:16:52.000Z</time>
      </trkpt>
      <trkpt lat="44.82619" lon="2.06114">
        <ele>560.96</ele>
        <time>2018-11-04T11:17:02.000Z</time>
      </trkpt>
      <trkpt lat="44.82617" lon="2.06112">
        <ele>558.7</ele>
        <time>2018-11-04T11:17:12.000Z</time>
      </trkpt>
      <trkpt lat="44.82618" lon="2.06113">
        <ele>559.48</ele>
        <time>2018-11-04T11:18:18.000Z</time>
      </trkpt>
      <trkpt lat="44.82621" lon="2.06116">
        <ele>558.67</ele>
        <time>2018-11-04T11:18:28.000Z</time>
      </trkpt>
      <trkpt lat="44.82621" lon="2.06114">
        <ele>558.1</ele>
        <time>2018-11-04T11:19:12.000Z</time>
      </trkpt>
      <trkpt lat="44.82614" lon="2.06111">
        <ele>558.85</ele>
        <time>2018-11-04T11:19:22.000Z</time>
      </trkpt>
      <trkpt lat="44.82611" lon="2.06097">
        <ele>560.87</ele>
        <time>2018-11-04T11:19:32.000Z</time>
      </trkpt>
      <trkpt lat="44.82613" lon="2.06082">
        <ele>561.65</ele>
        <time>2018-11-04T11:19:42.000Z</time>
      </trkpt>
      <trkpt lat="44.82621" lon="2.06072">
        <ele>561.75</ele>
        <time>2018-11-04T11:19:52.000Z</time>
      </trkpt>
      <trkpt lat="44.82631" lon="2.06076">
        <ele>562.73</ele>
        <time>2018-11-04T11:20:02.000Z</time>
      </trkpt>
      <trkpt lat="44.82983" lon="2.05869">
        <ele>585.06</ele>
        <time>2018-11-04T11:28:32.000Z</time>
      </trkpt>
      <trkpt lat="44.82984" lon="2.05869">
        <ele>587.94</ele>
        <time>2018-11-04T11:28:42.000Z</time>
      </trkpt>
      <trkpt lat="44.82984" lon="2.05868">
        <ele>591.71</ele>
        <time>2018-11-04T11:29:22.000Z</time>
      </trkpt>
      <trkpt lat="44.82985" lon="2.05867">
        <ele>591.71</ele>
        <time>2018-11-04T11:29:35.000Z</time>
      </trkpt>
      <trkpt lat="44.82992" lon="2.05863">
        <ele>592.02</ele>
        <time>2018-11-04T11:29:45.000Z</time>
      </trkpt>
      <trkpt lat="44.82995" lon="2.05862">
        <ele>594.84</ele>
        <time>2018-11-04T11:29:55.000Z</time>
      </trkpt>
      <trkpt lat="44.82998" lon="2.05863">
        <ele>609.16</ele>
        <time>2018-11-04T11:30:05.000Z</time>
      </trkpt>
      <trkpt lat="44.83005" lon="2.05858">
        <ele>600.72</ele>
        <time>2018-11-04T11:30:15.000Z</time>
      </trkpt>
      <trkpt lat="44.83013" lon="2.05854">
        <ele>600.07</ele>
        <time>2018-11-04T11:30:25.000Z</time>
      </trkpt>
      <trkpt lat="44.83023" lon="2.05847">
        <ele>599.43</ele>
        <time>2018-11-04T11:30:35.000Z</time>
      </trkpt>
      <trkpt lat="44.83031" lon="2.05842">
        <ele>598.08</ele>
        <time>2018-11-04T11:30:45.000Z</time>
      </trkpt>
      <trkpt lat="44.83037" lon="2.05835">
        <ele>599.8</ele>
        <time>2018-11-04T11:30:55.000Z</time>
      </trkpt>
      <trkpt lat="44.83168" lon="2.05603">
        <ele>612.07</ele>
        <time>2018-11-04T11:36:14.000Z</time>
      </trkpt>
      <trkpt lat="44.83178" lon="2.05605">
        <ele>611.68</ele>
        <time>2018-11-04T11:36:24.000Z</time>
      </trkpt>
      <trkpt lat="44.83182" lon="2.05606">
        <ele>611.99</ele>
        <time>2018-11-04T11:36:34.000Z</time>
      </trkpt>
      <trkpt lat="44.83188" lon="2.05609">
        <ele>612.07</ele>
        <time>2018-11-04T11:36:44.000Z</time>
      </trkpt>
      <trkpt lat="44.83198" lon="2.0561">
        <ele>613.33</ele>
        <time>2018-11-04T11:36:54.000Z</time>
      </trkpt>
      <trkpt lat="44.83198" lon="2.05609">
        <ele>614.44</ele>
        <time>2018-11-04T11:37:23.000Z</time>
      </trkpt>
      <trkpt lat="44.8321" lon="2.05612">
        <ele>610.52</ele>
        <time>2018-11-04T11:37:33.000Z</time>
      </trkpt>
      <trkpt lat="44.83224" lon="2.05613">
        <ele>610.43</ele>
        <time>2018-11-04T11:37:43.000Z</time>
      </trkpt>
      <trkpt lat="44.83234" lon="2.05613">
        <ele>610.32</ele>
        <time>2018-11-04T11:37:53.000Z</time>
      </trkpt>
      <trkpt lat="44.83246" lon="2.05615">
        <ele>612.51</ele>
        <time>2018-11-04T11:38:03.000Z</time>
      </trkpt>
      <trkpt lat="44.8326" lon="2.05613">
        <ele>615.13</ele>
        <time>2018-11-04T11:38:13.000Z</time>
      </trkpt>
      <trkpt lat="44.83274" lon="2.05611">
        <ele>614.52</ele>
        <time>2018-11-04T11:38:23.000Z</time>
      </trkpt>
      <trkpt lat="44.83284" lon="2.05613">
        <ele>616.18</ele>
        <time>2018-11-04T11:38:33.000Z</time>
      </trkpt>
      <trkpt lat="44.83294" lon="2.05618">
        <ele>616.65</ele>
        <time>2018-11-04T11:38:43.000Z</time>
      </trkpt>
      <trkpt lat="44.83304" lon="2.05629">
        <ele>615.15</ele>
        <time>2018-11-04T11:38:53.000Z</time>
      </trkpt>
      <trkpt lat="44.83317" lon="2.05637">
        <ele>615.23</ele>
        <time>2018-11-04T11:39:03.000Z</time>
      </trkpt>
      <trkpt lat="44.8333" lon="2.05644">
        <ele>615.99</ele>
        <time>2018-11-04T11:39:13.000Z</time>
      </trkpt>
      <trkpt lat="44.83342" lon="2.05654">
        <ele>615.86</ele>
        <time>2018-11-04T11:39:23.000Z</time>
      </trkpt>
      <trkpt lat="44.83353" lon="2.05663">
        <ele>615.64</ele>
        <time>2018-11-04T11:39:33.000Z</time>
      </trkpt>
      <trkpt lat="44.83362" lon="2.05673">
        <ele>614.07</ele>
        <time>2018-11-04T11:39:43.000Z</time>
      </trkpt>
      <trkpt lat="44.8351" lon="2.05792">
        <ele>616.15</ele>
        <time>2018-11-04T11:42:48.000Z</time>
      </trkpt>
      <trkpt lat="44.83517" lon="2.05787">
        <ele>614.52</ele>
        <time>2018-11-04T11:42:58.000Z</time>
      </trkpt>
      <trkpt lat="44.83526" lon="2.05783">
        <ele>615.33</ele>
        <time>2018-11-04T11:43:08.000Z</time>
      </trkpt>
      <trkpt lat="44.83536" lon="2.05779">
        <ele>617.14</ele>
        <time>2018-11-04T11:43:18.000Z</time>
      </trkpt>
      <trkpt lat="44.83548" lon="2.05774">
        <ele>618.66</ele>
        <time>2018-11-04T11:43:28.000Z</time>
      </trkpt>
      <trkpt lat="44.83551" lon="2.05772">
        <ele>616.86</ele>
        <time>2018-11-04T11:43:38.000Z</time>
      </trkpt>
      <trkpt lat="44.83553" lon="2.05772">
        <ele>619.18</ele>
        <time>2018-11-04T11:43:48.000Z</time>
      </trkpt>
      <trkpt lat="44.83554" lon="2.05772">
        <ele>619.58</ele>
        <time>2018-11-04T11:43:58.000Z</time>
      </trkpt>
      <trkpt lat="44.83558" lon="2.0577">
        <ele>619.44</ele>
        <time>2018-11-04T11:44:08.000Z</time>
      </trkpt>
      <trkpt lat="44.83559" lon="2.0577">
        <ele>620.04</ele>
        <time>2018-11-04T11:45:04.000Z</time>
      </trkpt>
      <trkpt lat="44.83565" lon="2.0577">
        <ele>619.05</ele>
        <time>2018-11-04T11:45:14.000Z</time>
      </trkpt>
      <trkpt lat="44.83566" lon="2.0577">
        <ele>616.22</ele>
        <time>2018-11-04T11:45:24.000Z</time>
      </trkpt>
      <trkpt lat="44.83568" lon="2.05769">
        <ele>616.65</ele>
        <time>2018-11-04T11:45:48.000Z</time>
      </trkpt>
      <trkpt lat="44.83576" lon="2.05767">
        <ele>617.73</ele>
        <time>2018-11-04T11:45:58.000Z</time>
      </trkpt>
      <trkpt lat="44.83588" lon="2.05767">
        <ele>617.66</ele>
        <time>2018-11-04T11:46:08.000Z</time>
      </trkpt>
      <trkpt lat="44.83603" lon="2.05768">
        <ele>616.04</ele>
        <time>2018-11-04T11:46:18.000Z</time>
      </trkpt>
      <trkpt lat="44.83615" lon="2.05768">
        <ele>615.94</ele>
        <time>2018-11-04T11:46:28.000Z</time>
      </trkpt>
      <trkpt lat="44.83631" lon="2.05766">
        <ele>613.2</ele>
        <time>2018-11-04T11:46:38.000Z</time>
      </trkpt>
      <trkpt lat="44.83645" lon="2.05763">
        <ele>612.41</ele>
        <time>2018-11-04T11:46:48.000Z</time>
      </trkpt>
      <trkpt lat="44.83658" lon="2.05751">
        <ele>614.59</ele>
        <time>2018-11-04T11:46:58.000Z</time>
      </trkpt>
      <trkpt lat="44.83883" lon="2.057">
        <ele>614.9</ele>
        <time>2018-11-04T11:50:09.000Z</time>
      </trkpt>
      <trkpt lat="44.83886" lon="2.057">
        <ele>617.24</ele>
        <time>2018-11-04T11:50:19.000Z</time>
      </trkpt>
      <trkpt lat="44.83886" lon="2.05698">
        <ele>615.14</ele>
        <time>2018-11-04T11:50:31.000Z</time>
      </trkpt>
      <trkpt lat="44.83887" lon="2.05696">
        <ele>614.98</ele>
        <time>2018-11-04T11:50:41.000Z</time>
      </trkpt>
      <trkpt lat="44.83886" lon="2.05697">
        <ele>615.81</ele>
        <time>2018-11-04T11:51:10.000Z</time>
      </trkpt>
      <trkpt lat="44.83887" lon="2.05699">
        <ele>614.95</ele>
        <time>2018-11-04T11:51:41.000Z</time>
      </trkpt>
      <trkpt lat="44.83907" lon="2.05713">
        <ele>620.11</ele>
        <time>2018-11-04T11:51:59.000Z</time>
      </trkpt>
      <trkpt lat="44.83934" lon="2.05725">
        <ele>614.53</ele>
        <time>2018-11-04T11:52:19.000Z</time>
      </trkpt>
      <trkpt lat="44.83958" lon="2.05743">
        <ele>615.61</ele>
        <time>2018-11-04T11:52:38.000Z</time>
      </trkpt>
      <trkpt lat="44.83977" lon="2.05754">
        <ele>622.23</ele>
        <time>2018-11-04T11:52:53.601Z</time>
      </trkpt>
      <trkpt lat="44.84005" lon="2.0576">
        <ele>615.85</ele>
        <time>2018-11-04T11:53:14.000Z</time>
      </trkpt>
      <trkpt lat="44.8403" lon="2.05747">
        <ele>634.51</ele>
        <time>2018-11-04T11:53:32.000Z</time>
      </trkpt>
      <trkpt lat="44.84038" lon="2.05729">
        <ele>632.96</ele>
        <time>2018-11-04T11:53:51.000Z</time>
      </trkpt>
      <trkpt lat="44.84049" lon="2.05686">
        <ele>627.52</ele>
        <time>2018-11-04T11:54:10.000Z</time>
      </trkpt>
      <trkpt lat="44.84034" lon="2.0567">
        <ele>618.79</ele>
        <time>2018-11-04T11:54:30.000Z</time>
      </trkpt>
      <trkpt lat="44.84037" lon="2.05643">
        <ele>622.2</ele>
        <time>2018-11-04T11:54:48.000Z</time>
      </trkpt>
      <trkpt lat="44.84044" lon="2.05568">
        <ele>623.27</ele>
        <time>2018-11-04T11:55:39.000Z</time>
      </trkpt>
      <trkpt lat="44.84043" lon="2.05568">
        <ele>627.56</ele>
        <time>2018-11-04T11:55:49.000Z</time>
      </trkpt>
      <trkpt lat="44.84048" lon="2.05559">
        <ele>623.8</ele>
        <time>2018-11-04T11:55:59.000Z</time>
      </trkpt>
      <trkpt lat="44.84055" lon="2.05543">
        <ele>620.32</ele>
        <time>2018-11-04T11:56:11.000Z</time>
      </trkpt>
      <trkpt lat="44.84053" lon="2.05521">
        <ele>636.42</ele>
        <time>2018-11-04T11:56:30.000Z</time>
      </trkpt>
      <trkpt lat="44.84071" lon="2.05491">
        <ele>611.69</ele>
        <time>2018-11-04T11:56:48.000Z</time>
      </trkpt>
      <trkpt lat="44.84075" lon="2.05472">
        <ele>617.68</ele>
        <time>2018-11-04T11:57:06.000Z</time>
      </trkpt>
      <trkpt lat="44.84074" lon="2.05446">
        <ele>612.22</ele>
        <time>2018-11-04T11:57:24.000Z</time>
      </trkpt>
      <trkpt lat="44.84094" lon="2.05404">
        <ele>618.26</ele>
        <time>2018-11-04T11:57:44.000Z</time>
      </trkpt>
      <trkpt lat="44.84097" lon="2.05387">
        <ele>619.26</ele>
        <time>2018-11-04T11:58:01.000Z</time>
      </trkpt>
      <trkpt lat="44.84145" lon="2.05272">
        <ele>597.02</ele>
        <time>2018-11-04T11:59:38.000Z</time>
      </trkpt>
      <trkpt lat="44.84151" lon="2.0526">
        <ele>599.81</ele>
        <time>2018-11-04T11:59:48.000Z</time>
      </trkpt>
      <trkpt lat="44.84155" lon="2.0525">
        <ele>602.45</ele>
        <time>2018-11-04T11:59:58.000Z</time>
      </trkpt>
      <trkpt lat="44.84158" lon="2.0524">
        <ele>602</ele>
        <time>2018-11-04T12:00:08.000Z</time>
      </trkpt>
      <trkpt lat="44.84163" lon="2.05227">
        <ele>597.43</ele>
        <time>2018-11-04T12:00:18.000Z</time>
      </trkpt>
      <trkpt lat="44.84168" lon="2.05212">
        <ele>596.29</ele>
        <time>2018-11-04T12:00:28.000Z</time>
      </trkpt>
      <trkpt lat="44.84176" lon="2.05196">
        <ele>596.21</ele>
        <time>2018-11-04T12:00:38.000Z</time>
      </trkpt>
      <trkpt lat="44.84183" lon="2.05182">
        <ele>597.22</ele>
        <time>2018-11-04T12:00:48.000Z</time>
      </trkpt>
      <trkpt lat="44.84194" lon="2.0517">
        <ele>595.72</ele>
        <time>2018-11-04T12:00:58.000Z</time>
      </trkpt>
      <trkpt lat="44.84201" lon="2.0516">
        <ele>593.34</ele>
        <time>2018-11-04T12:01:08.000Z</time>
      </trkpt>
      <trkpt lat="44.8421" lon="2.05151">
        <ele>592.27</ele>
        <time>2018-11-04T12:01:18.000Z</time>
      </trkpt>
      <trkpt lat="44.84218" lon="2.05143">
        <ele>591.94</ele>
        <time>2018-11-04T12:01:28.000Z</time>
      </trkpt>
      <trkpt lat="44.84214" lon="2.05143">
        <ele>591.82</ele>
        <time>2018-11-04T12:01:38.000Z</time>
      </trkpt>
      <trkpt lat="44.84246" lon="2.05106">
        <ele>610.91</ele>
        <time>2018-11-04T12:02:12.000Z</time>
      </trkpt>
      <trkpt lat="44.84276" lon="2.05082">
        <ele>627.2</ele>
        <time>2018-11-04T12:02:30.000Z</time>
      </trkpt>
      <trkpt lat="44.84286" lon="2.05074">
        <ele>604.07</ele>
        <time>2018-11-04T12:02:48.000Z</time>
      </trkpt>
      <trkpt lat="44.84298" lon="2.05066">
        <ele>597.72</ele>
        <time>2018-11-04T12:03:05.000Z</time>
      </trkpt>
      <trkpt lat="44.84313" lon="2.05061">
        <ele>601.28</ele>
        <time>2018-11-04T12:03:24.000Z</time>
      </trkpt>
      <trkpt lat="44.84349" lon="2.05048">
        <ele>594.18</ele>
        <time>2018-11-04T12:03:43.000Z</time>
      </trkpt>
      <trkpt lat="44.846" lon="2.04897">
        <ele>609.07</ele>
        <time>2018-11-04T12:07:52.000Z</time>
      </trkpt>
      <trkpt lat="44.84605" lon="2.04894">
        <ele>610.76</ele>
        <time>2018-11-04T12:08:02.000Z</time>
      </trkpt>
      <trkpt lat="44.84608" lon="2.04877">
        <ele>115.06</ele>
        <time>2018-11-04T12:08:19.000Z</time>
      </trkpt>
      <trkpt lat="44.8461" lon="2.04857">
        <ele>616.29</ele>
        <time>2018-11-04T12:08:29.000Z</time>
      </trkpt>
      <trkpt lat="44.84636" lon="2.04807">
        <ele>617.61</ele>
        <time>2018-11-04T12:08:58.000Z</time>
      </trkpt>
      <trkpt lat="44.84645" lon="2.04775">
        <ele>617.3</ele>
        <time>2018-11-04T12:09:16.000Z</time>
      </trkpt>
      <trkpt lat="44.84652" lon="2.04756">
        <ele>637.46</ele>
        <time>2018-11-04T12:09:34.000Z</time>
      </trkpt>
      <trkpt lat="44.84676" lon="2.04716">
        <ele>624.04</ele>
        <time>2018-11-04T12:09:53.000Z</time>
      </trkpt>
      <trkpt lat="44.8469" lon="2.04314">
        <ele>598.14</ele>
        <time>2018-11-04T12:15:59.000Z</time>
      </trkpt>
      <trkpt lat="44.84696" lon="2.043">
        <ele>604.31</ele>
        <time>2018-11-04T12:16:09.000Z</time>
      </trkpt>
      <trkpt lat="44.84716" lon="2.04244">
        <ele>593.01</ele>
        <time>2018-11-04T12:16:34.000Z</time>
      </trkpt>
      <trkpt lat="44.84724" lon="2.04228">
        <ele>613.78</ele>
        <time>2018-11-04T12:16:54.000Z</time>
      </trkpt>
      <trkpt lat="44.84738" lon="2.04196">
        <ele>615.36</ele>
        <time>2018-11-04T12:17:13.000Z</time>
      </trkpt>
      <trkpt lat="44.84745" lon="2.04165">
        <ele>610.16</ele>
        <time>2018-11-04T12:17:33.000Z</time>
      </trkpt>
      <trkpt lat="44.84748" lon="2.0411">
        <ele>629.49</ele>
        <time>2018-11-04T12:17:50.000Z</time>
      </trkpt>
      <trkpt lat="44.8476" lon="2.04111">
        <ele>602.59</ele>
        <time>2018-11-04T12:18:09.000Z</time>
      </trkpt>
      <trkpt lat="44.84772" lon="2.04087">
        <ele>607.87</ele>
        <time>2018-11-04T12:18:29.000Z</time>
      </trkpt>
      <trkpt lat="44.84794" lon="2.03896">
        <ele>599.95</ele>
        <time>2018-11-04T12:20:27.000Z</time>
      </trkpt>
      <trkpt lat="44.84785" lon="2.03889">
        <ele>604.55</ele>
        <time>2018-11-04T12:20:37.000Z</time>
      </trkpt>
      <trkpt lat="44.84775" lon="2.03882">
        <ele>603.12</ele>
        <time>2018-11-04T12:20:47.000Z</time>
      </trkpt>
      <trkpt lat="44.84766" lon="2.03877">
        <ele>602.26</ele>
        <time>2018-11-04T12:20:57.000Z</time>
      </trkpt>
      <trkpt lat="44.84756" lon="2.03874">
        <ele>605.07</ele>
        <time>2018-11-04T12:21:07.000Z</time>
      </trkpt>
      <trkpt lat="44.84747" lon="2.03872">
        <ele>600.57</ele>
        <time>2018-11-04T12:21:17.000Z</time>
      </trkpt>
      <trkpt lat="44.84736" lon="2.03869">
        <ele>599.42</ele>
        <time>2018-11-04T12:21:27.000Z</time>
      </trkpt>
      <trkpt lat="44.84725" lon="2.03867">
        <ele>591.2</ele>
        <time>2018-11-04T12:21:37.000Z</time>
      </trkpt>
      <trkpt lat="44.84704" lon="2.03864">
        <ele>584.14</ele>
        <time>2018-11-04T12:21:55.000Z</time>
      </trkpt>
      <trkpt lat="44.84686" lon="2.03867">
        <ele>572.53</ele>
        <time>2018-11-04T12:22:13.000Z</time>
      </trkpt>
      <trkpt lat="44.84661" lon="2.03859">
        <ele>586.27</ele>
        <time>2018-11-04T12:22:34.000Z</time>
      </trkpt>
      <trkpt lat="44.84639" lon="2.03864">
        <ele>606.84</ele>
        <time>2018-11-04T12:22:53.000Z</time>
      </trkpt>
      <trkpt lat="44.8464" lon="2.0386">
        <ele>599.53</ele>
        <time>2018-11-04T12:23:29.000Z</time>
      </trkpt>
      <trkpt lat="44.84654" lon="2.03824">
        <ele>581.84</ele>
        <time>2018-11-04T12:24:04.000Z</time>
      </trkpt>
      <trkpt lat="44.84655" lon="2.03808">
        <ele>581.46</ele>
        <time>2018-11-04T12:24:22.000Z</time>
      </trkpt>
      <trkpt lat="44.84657" lon="2.03787">
        <ele>587.95</ele>
        <time>2018-11-04T12:24:32.000Z</time>
      </trkpt>
      <trkpt lat="44.8466" lon="2.03772">
        <ele>589.77</ele>
        <time>2018-11-04T12:24:42.000Z</time>
      </trkpt>
      <trkpt lat="44.84663" lon="2.03759">
        <ele>590.68</ele>
        <time>2018-11-04T12:24:54.000Z</time>
      </trkpt>
      <trkpt lat="44.84675" lon="2.03702">
        <ele>595.06</ele>
        <time>2018-11-04T12:25:30.000Z</time>
      </trkpt>
      <trkpt lat="44.84689" lon="2.03672">
        <ele>582.77</ele>
        <time>2018-11-04T12:25:48.000Z</time>
      </trkpt>
      <trkpt lat="44.84699" lon="2.0364">
        <ele>571.76</ele>
        <time>2018-11-04T12:26:07.000Z</time>
      </trkpt>
      <trkpt lat="44.84693" lon="2.03609">
        <ele>581.92</ele>
        <time>2018-11-04T12:26:27.000Z</time>
      </trkpt>
      <trkpt lat="44.84696" lon="2.0359">
        <ele>573.59</ele>
        <time>2018-11-04T12:26:45.000Z</time>
      </trkpt>
      <trkpt lat="44.84694" lon="2.03557">
        <ele>575.3</ele>
        <time>2018-11-04T12:27:03.000Z</time>
      </trkpt>
      <trkpt lat="44.8469" lon="2.03528">
        <ele>585.33</ele>
        <time>2018-11-04T12:27:22.000Z</time>
      </trkpt>
      <trkpt lat="44.84684" lon="2.035">
        <ele>591.17</ele>
        <time>2018-11-04T12:27:40.000Z</time>
      </trkpt>
      <trkpt lat="44.8469" lon="2.03474">
        <ele>583.98</ele>
        <time>2018-11-04T12:27:59.000Z</time>
      </trkpt>
      <trkpt lat="44.84688" lon="2.03442">
        <ele>582.2</ele>
        <time>2018-11-04T12:28:19.000Z</time>
      </trkpt>
      <trkpt lat="44.84685" lon="2.03416">
        <ele>587.12</ele>
        <time>2018-11-04T12:28:37.000Z</time>
      </trkpt>
      <trkpt lat="44.84682" lon="2.03409">
        <ele>584.62</ele>
        <time>2018-11-04T12:28:53.000Z</time>
      </trkpt>
      <trkpt lat="44.84682" lon="2.03407">
        <ele>583.84</ele>
        <time>2018-11-04T12:29:04.000Z</time>
      </trkpt>
      <trkpt lat="44.84682" lon="2.03394">
        <ele>586.16</ele>
        <time>2018-11-04T12:29:14.000Z</time>
      </trkpt>
      <trkpt lat="44.84681" lon="2.03381">
        <ele>585.94</ele>
        <time>2018-11-04T12:29:24.000Z</time>
      </trkpt>
      <trkpt lat="44.84681" lon="2.03375">
        <ele>585.13</ele>
        <time>2018-11-04T12:29:34.000Z</time>
      </trkpt>
      <trkpt lat="44.84683" lon="2.03366">
        <ele>584.1</ele>
        <time>2018-11-04T12:29:44.000Z</time>
      </trkpt>
      <trkpt lat="44.84683" lon="2.03354">
        <ele>585.92</ele>
        <time>2018-11-04T12:29:54.000Z</time>
      </trkpt>
      <trkpt lat="44.84684" lon="2.03305">
        <ele>589.05</ele>
        <time>2018-11-04T12:30:17.000Z</time>
      </trkpt>
      <trkpt lat="44.84681" lon="2.03271">
        <ele>591.58</ele>
        <time>2018-11-04T12:30:36.000Z</time>
      </trkpt>
      <trkpt lat="44.84678" lon="2.03239">
        <ele>589.17</ele>
        <time>2018-11-04T12:30:55.000Z</time>
      </trkpt>
      <trkpt lat="44.84681" lon="2.032">
        <ele>591.01</ele>
        <time>2018-11-04T12:31:15.000Z</time>
      </trkpt>
      <trkpt lat="44.84692" lon="2.03173">
        <ele>580.66</ele>
        <time>2018-11-04T12:31:30.658Z</time>
      </trkpt>
      <trkpt lat="44.84692" lon="2.03139">
        <ele>583.16</ele>
        <time>2018-11-04T12:31:50.000Z</time>
      </trkpt>
      <trkpt lat="44.84695" lon="2.03107">
        <ele>582.24</ele>
        <time>2018-11-04T12:32:08.000Z</time>
      </trkpt>
      <trkpt lat="44.84695" lon="2.03073">
        <ele>586.92</ele>
        <time>2018-11-04T12:32:27.000Z</time>
      </trkpt>
      <trkpt lat="44.84703" lon="2.03042">
        <ele>584.77</ele>
        <time>2018-11-04T12:32:45.000Z</time>
      </trkpt>
      <trkpt lat="44.848" lon="2.02897">
        <ele>586.19</ele>
        <time>2018-11-04T12:35:07.000Z</time>
      </trkpt>
      <trkpt lat="44.848" lon="2.02898">
        <ele>590.34</ele>
        <time>2018-11-04T12:35:54.000Z</time>
      </trkpt>
      <trkpt lat="44.84799" lon="2.02897">
        <ele>591.79</ele>
        <time>2018-11-04T12:37:26.000Z</time>
      </trkpt>
      <trkpt lat="44.84798" lon="2.02897">
        <ele>591.99</ele>
        <time>2018-11-04T12:37:54.000Z</time>
      </trkpt>
      <trkpt lat="44.84811" lon="2.02868">
        <ele>588.41</ele>
        <time>2018-11-04T12:38:17.000Z</time>
      </trkpt>
      <trkpt lat="44.84822" lon="2.02835">
        <ele>582.66</ele>
        <time>2018-11-04T12:38:37.000Z</time>
      </trkpt>
      <trkpt lat="44.84829" lon="2.02802">
        <ele>585.2</ele>
        <time>2018-11-04T12:38:56.000Z</time>
      </trkpt>
      <trkpt lat="44.84841" lon="2.02767">
        <ele>584.39</ele>
        <time>2018-11-04T12:39:16.000Z</time>
      </trkpt>
      <trkpt lat="44.84846" lon="2.02737">
        <ele>583.36</ele>
        <time>2018-11-04T12:39:36.000Z</time>
      </trkpt>
      <trkpt lat="44.84851" lon="2.02706">
        <ele>583.16</ele>
        <time>2018-11-04T12:39:51.624Z</time>
      </trkpt>
      <trkpt lat="44.84858" lon="2.02675">
        <ele>582.83</ele>
        <time>2018-11-04T12:40:12.000Z</time>
      </trkpt>
      <trkpt lat="44.84848" lon="2.02649">
        <ele>581.81</ele>
        <time>2018-11-04T12:40:29.000Z</time>
      </trkpt>
      <trkpt lat="44.84855" lon="2.02616">
        <ele>584.5</ele>
        <time>2018-11-04T12:40:48.000Z</time>
      </trkpt>
      <trkpt lat="44.84858" lon="2.02584">
        <ele>581.61</ele>
        <time>2018-11-04T12:41:06.000Z</time>
      </trkpt>
      <trkpt lat="44.84852" lon="2.02556">
        <ele>580.01</ele>
        <time>2018-11-04T12:41:24.000Z</time>
      </trkpt>
      <trkpt lat="44.8484" lon="2.02524">
        <ele>582.28</ele>
        <time>2018-11-04T12:41:43.000Z</time>
      </trkpt>
      <trkpt lat="44.84864" lon="2.02472">
        <ele>556.1</ele>
        <time>2018-11-04T12:42:02.000Z</time>
      </trkpt>
      <trkpt lat="44.84832" lon="2.02464">
        <ele>571.02</ele>
        <time>2018-11-04T12:42:21.000Z</time>
      </trkpt>
      <trkpt lat="44.84829" lon="2.02436">
        <ele>583.83</ele>
        <time>2018-11-04T12:42:38.000Z</time>
      </trkpt>
      <trkpt lat="44.84814" lon="2.02415">
        <ele>580.68</ele>
        <time>2018-11-04T12:42:58.000Z</time>
      </trkpt>
      <trkpt lat="44.84798" lon="2.02377">
        <ele>573.97</ele>
        <time>2018-11-04T12:43:17.000Z</time>
      </trkpt>
      <trkpt lat="44.84789" lon="2.02364">
        <ele>569.51</ele>
        <time>2018-11-04T12:43:35.000Z</time>
      </trkpt>
      <trkpt lat="44.84756" lon="2.02345">
        <ele>566.16</ele>
        <time>2018-11-04T12:43:53.000Z</time>
      </trkpt>
      <trkpt lat="44.84756" lon="2.02325">
        <ele>570.8</ele>
        <time>2018-11-04T12:44:11.000Z</time>
      </trkpt>
      <trkpt lat="44.84746" lon="2.02314">
        <ele>585.76</ele>
        <time>2018-11-04T12:44:29.000Z</time>
      </trkpt>
      <trkpt lat="44.84718" lon="2.02279">
        <ele>580.44</ele>
        <time>2018-11-04T12:44:49.000Z</time>
      </trkpt>
      <trkpt lat="44.84747" lon="2.02252">
        <ele>549.26</ele>
        <time>2018-11-04T12:45:07.000Z</time>
      </trkpt>
      <trkpt lat="44.84713" lon="2.02233">
        <ele>600.64</ele>
        <time>2018-11-04T12:45:25.000Z</time>
      </trkpt>
      <trkpt lat="44.84695" lon="2.02198">
        <ele>592.6</ele>
        <time>2018-11-04T12:45:43.000Z</time>
      </trkpt>
      <trkpt lat="44.8468" lon="2.02172">
        <ele>590.26</ele>
        <time>2018-11-04T12:46:01.000Z</time>
      </trkpt>
      <trkpt lat="44.84671" lon="2.0215">
        <ele>581.67</ele>
        <time>2018-11-04T12:46:19.000Z</time>
      </trkpt>
      <trkpt lat="44.84669" lon="2.02152">
        <ele>549.17</ele>
        <time>2018-11-04T12:46:29.000Z</time>
      </trkpt>
      <trkpt lat="44.84668" lon="2.02155">
        <ele>575.82</ele>
        <time>2018-11-04T12:46:39.000Z</time>
      </trkpt>
      <trkpt lat="44.84666" lon="2.02145">
        <ele>577.65</ele>
        <time>2018-11-04T12:46:49.000Z</time>
      </trkpt>
      <trkpt lat="44.84642" lon="2.02148">
        <ele>573.61</ele>
        <time>2018-11-04T12:47:14.000Z</time>
      </trkpt>
      <trkpt lat="44.84614" lon="2.02162">
        <ele>580.19</ele>
        <time>2018-11-04T12:47:33.000Z</time>
      </trkpt>
      <trkpt lat="44.84604" lon="2.02186">
        <ele>573.94</ele>
        <time>2018-11-04T12:47:53.000Z</time>
      </trkpt>
      <trkpt lat="44.84608" lon="2.02215">
        <ele>576.29</ele>
        <time>2018-11-04T12:48:12.000Z</time>
      </trkpt>
      <trkpt lat="44.84606" lon="2.02244">
        <ele>575.66</ele>
        <time>2018-11-04T12:48:31.000Z</time>
      </trkpt>
      <trkpt lat="44.84616" lon="2.02273">
        <ele>572.71</ele>
        <time>2018-11-04T12:48:50.000Z</time>
      </trkpt>
      <trkpt lat="44.84614" lon="2.02299">
        <ele>575.42</ele>
        <time>2018-11-04T12:49:05.666Z</time>
      </trkpt>
      <trkpt lat="44.84606" lon="2.02329">
        <ele>578.34</ele>
        <time>2018-11-04T12:49:24.000Z</time>
      </trkpt>
      <trkpt lat="44.84602" lon="2.02355">
        <ele>575.32</ele>
        <time>2018-11-04T12:49:42.000Z</time>
      </trkpt>
      <trkpt lat="44.84598" lon="2.02386">
        <ele>572.9</ele>
        <time>2018-11-04T12:50:02.000Z</time>
      </trkpt>
      <trkpt lat="44.84609" lon="2.02403">
        <ele>567.83</ele>
        <time>2018-11-04T12:50:20.000Z</time>
      </trkpt>
      <trkpt lat="44.84601" lon="2.02443">
        <ele>565.8</ele>
        <time>2018-11-04T12:50:39.000Z</time>
      </trkpt>
      <trkpt lat="44.84626" lon="2.02476">
        <ele>559.37</ele>
        <time>2018-11-04T12:50:58.000Z</time>
      </trkpt>
      <trkpt lat="44.84621" lon="2.02486">
        <ele>563.96</ele>
        <time>2018-11-04T12:51:16.000Z</time>
      </trkpt>
      <trkpt lat="44.84617" lon="2.02516">
        <ele>565.16</ele>
        <time>2018-11-04T12:51:35.000Z</time>
      </trkpt>
      <trkpt lat="44.84621" lon="2.02542">
        <ele>553.93</ele>
        <time>2018-11-04T12:51:53.000Z</time>
      </trkpt>
      <trkpt lat="44.84615" lon="2.02551">
        <ele>560.76</ele>
        <time>2018-11-04T12:52:03.000Z</time>
      </trkpt>
      <trkpt lat="44.84609" lon="2.02561">
        <ele>561.7</ele>
        <time>2018-11-04T12:52:13.000Z</time>
      </trkpt>
      <trkpt lat="44.84604" lon="2.02566">
        <ele>563.24</ele>
        <time>2018-11-04T12:52:23.000Z</time>
      </trkpt>
      <trkpt lat="44.84576" lon="2.02596">
        <ele>572.03</ele>
        <time>2018-11-04T12:52:51.000Z</time>
      </trkpt>
      <trkpt lat="44.84555" lon="2.02612">
        <ele>572.22</ele>
        <time>2018-11-04T12:53:09.000Z</time>
      </trkpt>
      <trkpt lat="44.84539" lon="2.02613">
        <ele>564.12</ele>
        <time>2018-11-04T12:53:27.000Z</time>
      </trkpt>
      <trkpt lat="44.84521" lon="2.02617">
        <ele>561.68</ele>
        <time>2018-11-04T12:53:45.000Z</time>
      </trkpt>
      <trkpt lat="44.8451" lon="2.02623">
        <ele>561.89</ele>
        <time>2018-11-04T12:54:04.000Z</time>
      </trkpt>
      <trkpt lat="44.8449" lon="2.02619">
        <ele>566.27</ele>
        <time>2018-11-04T12:54:23.000Z</time>
      </trkpt>
      <trkpt lat="44.84468" lon="2.02618">
        <ele>555.07</ele>
        <time>2018-11-04T12:54:43.000Z</time>
      </trkpt>
      <trkpt lat="44.84462" lon="2.02636">
        <ele>561.95</ele>
        <time>2018-11-04T12:55:00.000Z</time>
      </trkpt>
      <trkpt lat="44.84433" lon="2.02643">
        <ele>586.87</ele>
        <time>2018-11-04T12:55:18.000Z</time>
      </trkpt>
      <trkpt lat="44.84439" lon="2.0264">
        <ele>604.26</ele>
        <time>2018-11-04T12:55:36.000Z</time>
      </trkpt>
      <trkpt lat="44.84438" lon="2.02641">
        <ele>585.25</ele>
        <time>2018-11-04T12:55:53.000Z</time>
      </trkpt>
      <trkpt lat="44.84427" lon="2.0267">
        <ele>567.16</ele>
        <time>2018-11-04T12:56:12.000Z</time>
      </trkpt>
      <trkpt lat="44.84415" lon="2.02688">
        <ele>564.9</ele>
        <time>2018-11-04T12:56:31.000Z</time>
      </trkpt>
      <trkpt lat="44.84405" lon="2.027">
        <ele>574.43</ele>
        <time>2018-11-04T12:56:49.000Z</time>
      </trkpt>
      <trkpt lat="44.84393" lon="2.02729">
        <ele>579.61</ele>
        <time>2018-11-04T12:57:08.000Z</time>
      </trkpt>
      <trkpt lat="44.84381" lon="2.02757">
        <ele>577.03</ele>
        <time>2018-11-04T12:57:26.000Z</time>
      </trkpt>
      <trkpt lat="44.84361" lon="2.02771">
        <ele>574.28</ele>
        <time>2018-11-04T12:57:45.000Z</time>
      </trkpt>
      <trkpt lat="44.84346" lon="2.02796">
        <ele>576.86</ele>
        <time>2018-11-04T12:58:05.000Z</time>
      </trkpt>
      <trkpt lat="44.84322" lon="2.02822">
        <ele>577.32</ele>
        <time>2018-11-04T12:58:24.000Z</time>
      </trkpt>
      <trkpt lat="44.84309" lon="2.02838">
        <ele>579.43</ele>
        <time>2018-11-04T12:58:42.000Z</time>
      </trkpt>
      <trkpt lat="44.84298" lon="2.02854">
        <ele>575.68</ele>
        <time>2018-11-04T12:59:01.000Z</time>
      </trkpt>
      <trkpt lat="44.84276" lon="2.02874">
        <ele>569.47</ele>
        <time>2018-11-04T12:59:21.000Z</time>
      </trkpt>
      <trkpt lat="44.84261" lon="2.02892">
        <ele>579.21</ele>
        <time>2018-11-04T12:59:41.000Z</time>
      </trkpt>
      <trkpt lat="44.84247" lon="2.02908">
        <ele>582.12</ele>
        <time>2018-11-04T13:00:00.000Z</time>
      </trkpt>
      <trkpt lat="44.84228" lon="2.02932">
        <ele>581.91</ele>
        <time>2018-11-04T13:00:18.000Z</time>
      </trkpt>
      <trkpt lat="44.84219" lon="2.02961">
        <ele>580.92</ele>
        <time>2018-11-04T13:00:37.000Z</time>
      </trkpt>
      <trkpt lat="44.84197" lon="2.02982">
        <ele>585.88</ele>
        <time>2018-11-04T13:00:57.000Z</time>
      </trkpt>
      <trkpt lat="44.84182" lon="2.03004">
        <ele>586.13</ele>
        <time>2018-11-04T13:01:15.000Z</time>
      </trkpt>
      <trkpt lat="44.8418" lon="2.03028">
        <ele>580.96</ele>
        <time>2018-11-04T13:01:33.000Z</time>
      </trkpt>
      <trkpt lat="44.84164" lon="2.0306">
        <ele>582.17</ele>
        <time>2018-11-04T13:01:52.000Z</time>
      </trkpt>
      <trkpt lat="44.84159" lon="2.03126">
        <ele>567.9</ele>
        <time>2018-11-04T13:02:11.000Z</time>
      </trkpt>
      <trkpt lat="44.84157" lon="2.0311">
        <ele>580.19</ele>
        <time>2018-11-04T13:02:21.000Z</time>
      </trkpt>
      <trkpt lat="44.84158" lon="2.03109">
        <ele>582.84</ele>
        <time>2018-11-04T13:02:31.000Z</time>
      </trkpt>
      <trkpt lat="44.84158" lon="2.03118">
        <ele>579.83</ele>
        <time>2018-11-04T13:02:41.000Z</time>
      </trkpt>
      <trkpt lat="44.84159" lon="2.03128">
        <ele>581.72</ele>
        <time>2018-11-04T13:02:51.000Z</time>
      </trkpt>
      <trkpt lat="44.84159" lon="2.03143">
        <ele>582.85</ele>
        <time>2018-11-04T13:03:01.000Z</time>
      </trkpt>
      <trkpt lat="44.84161" lon="2.03147">
        <ele>582.07</ele>
        <time>2018-11-04T13:03:11.000Z</time>
      </trkpt>
      <trkpt lat="44.84162" lon="2.03149">
        <ele>582.14</ele>
        <time>2018-11-04T13:03:21.000Z</time>
      </trkpt>
      <trkpt lat="44.84162" lon="2.03157">
        <ele>581.18</ele>
        <time>2018-11-04T13:03:31.000Z</time>
      </trkpt>
      <trkpt lat="44.84176" lon="2.03184">
        <ele>570.1</ele>
        <time>2018-11-04T13:03:54.000Z</time>
      </trkpt>
      <trkpt lat="44.84177" lon="2.03188">
        <ele>557.74</ele>
        <time>2018-11-04T13:04:13.000Z</time>
      </trkpt>
      <trkpt lat="44.84186" lon="2.03265">
        <ele>581.33</ele>
        <time>2018-11-04T13:04:31.000Z</time>
      </trkpt>
      <trkpt lat="44.84177" lon="2.033">
        <ele>583.88</ele>
        <time>2018-11-04T13:04:49.000Z</time>
      </trkpt>
      <trkpt lat="44.84176" lon="2.03318">
        <ele>576.11</ele>
        <time>2018-11-04T13:05:07.000Z</time>
      </trkpt>
      <trkpt lat="44.84193" lon="2.03347">
        <ele>562.74</ele>
        <time>2018-11-04T13:05:25.000Z</time>
      </trkpt>
      <trkpt lat="44.84161" lon="2.0338">
        <ele>568.51</ele>
        <time>2018-11-04T13:05:43.000Z</time>
      </trkpt>
      <trkpt lat="44.84148" lon="2.03401">
        <ele>580.16</ele>
        <time>2018-11-04T13:06:01.000Z</time>
      </trkpt>
      <trkpt lat="44.84144" lon="2.03412">
        <ele>584.72</ele>
        <time>2018-11-04T13:06:19.000Z</time>
      </trkpt>
      <trkpt lat="44.84149" lon="2.03416">
        <ele>573.71</ele>
        <time>2018-11-04T13:06:37.000Z</time>
      </trkpt>
      <trkpt lat="44.84178" lon="2.03432">
        <ele>574.35</ele>
        <time>2018-11-04T13:06:55.000Z</time>
      </trkpt>
      <trkpt lat="44.84186" lon="2.03499">
        <ele>574.02</ele>
        <time>2018-11-04T13:07:13.000Z</time>
      </trkpt>
      <trkpt lat="44.84177" lon="2.03537">
        <ele>581.57</ele>
        <time>2018-11-04T13:07:31.000Z</time>
      </trkpt>
      <trkpt lat="44.84185" lon="2.03555">
        <ele>579.3</ele>
        <time>2018-11-04T13:07:49.000Z</time>
      </trkpt>
      <trkpt lat="44.84189" lon="2.03581">
        <ele>584.62</ele>
        <time>2018-11-04T13:08:07.000Z</time>
      </trkpt>
      <trkpt lat="44.84184" lon="2.03624">
        <ele>588.12</ele>
        <time>2018-11-04T13:08:25.000Z</time>
      </trkpt>
      <trkpt lat="44.84173" lon="2.03662">
        <ele>599.03</ele>
        <time>2018-11-04T13:08:43.000Z</time>
      </trkpt>
      <trkpt lat="44.8418" lon="2.03688">
        <ele>585.67</ele>
        <time>2018-11-04T13:09:01.000Z</time>
      </trkpt>
      <trkpt lat="44.84182" lon="2.0371">
        <ele>596.96</ele>
        <time>2018-11-04T13:09:20.000Z</time>
      </trkpt>
      <trkpt lat="44.84173" lon="2.03758">
        <ele>590.88</ele>
        <time>2018-11-04T13:09:38.000Z</time>
      </trkpt>
      <trkpt lat="44.84171" lon="2.0377">
        <ele>109.68</ele>
        <time>2018-11-04T13:09:50.000Z</time>
      </trkpt>
      <trkpt lat="44.8418" lon="2.03764">
        <ele>601.29</ele>
        <time>2018-11-04T13:10:00.000Z</time>
      </trkpt>
      <trkpt lat="44.84178" lon="2.03767">
        <ele>602.32</ele>
        <time>2018-11-04T13:10:10.000Z</time>
      </trkpt>
      <trkpt lat="44.84176" lon="2.03768">
        <ele>601.74</ele>
        <time>2018-11-04T13:10:59.000Z</time>
      </trkpt>
      <trkpt lat="44.84159" lon="2.03788">
        <ele>616.56</ele>
        <time>2018-11-04T13:11:18.000Z</time>
      </trkpt>
      <trkpt lat="44.84155" lon="2.03825">
        <ele>600.45</ele>
        <time>2018-11-04T13:11:36.000Z</time>
      </trkpt>
      <trkpt lat="44.84152" lon="2.03853">
        <ele>595.21</ele>
        <time>2018-11-04T13:11:54.000Z</time>
      </trkpt>
      <trkpt lat="44.84122" lon="2.03867">
        <ele>596.55</ele>
        <time>2018-11-04T13:12:12.000Z</time>
      </trkpt>
      <trkpt lat="44.84108" lon="2.03873">
        <ele>601.37</ele>
        <time>2018-11-04T13:12:30.000Z</time>
      </trkpt>
      <trkpt lat="44.8408" lon="2.0389">
        <ele>602.7</ele>
        <time>2018-11-04T13:12:48.000Z</time>
      </trkpt>
      <trkpt lat="44.84084" lon="2.03891">
        <ele>595.56</ele>
        <time>2018-11-04T13:13:06.000Z</time>
      </trkpt>
      <trkpt lat="44.84086" lon="2.03887">
        <ele>588.68</ele>
        <time>2018-11-04T13:13:25.000Z</time>
      </trkpt>
      <trkpt lat="44.84083" lon="2.03892">
        <ele>597.16</ele>
        <time>2018-11-04T13:13:43.000Z</time>
      </trkpt>
      <trkpt lat="44.84063" lon="2.03892">
        <ele>596.77</ele>
        <time>2018-11-04T13:14:01.000Z</time>
      </trkpt>
      <trkpt lat="44.84058" lon="2.03885">
        <ele>606.22</ele>
        <time>2018-11-04T13:14:20.000Z</time>
      </trkpt>
      <trkpt lat="44.84058" lon="2.03887">
        <ele>606.37</ele>
        <time>2018-11-04T13:15:34.000Z</time>
      </trkpt>
      <trkpt lat="44.84058" lon="2.0389">
        <ele>605.9</ele>
        <time>2018-11-04T13:15:44.000Z</time>
      </trkpt>
      <trkpt lat="44.84059" lon="2.03891">
        <ele>604.09</ele>
        <time>2018-11-04T13:15:58.000Z</time>
      </trkpt>
      <trkpt lat="44.8406" lon="2.0389">
        <ele>602.63</ele>
        <time>2018-11-04T13:16:18.000Z</time>
      </trkpt>
      <trkpt lat="44.84061" lon="2.03889">
        <ele>599.02</ele>
        <time>2018-11-04T13:16:28.000Z</time>
      </trkpt>
      <trkpt lat="44.84064" lon="2.03888">
        <ele>597.74</ele>
        <time>2018-11-04T13:16:47.676Z</time>
      </trkpt>
      <trkpt lat="44.84065" lon="2.03889">
        <ele>596.99</ele>
        <time>2018-11-04T13:23:42.606Z</time>
      </trkpt>
      <trkpt lat="44.84064" lon="2.03889">
        <ele>596.69</ele>
        <time>2018-11-04T13:24:16.000Z</time>
      </trkpt>
      <trkpt lat="44.84065" lon="2.03889">
        <ele>595.5</ele>
        <time>2018-11-04T13:24:28.000Z</time>
      </trkpt>
      <trkpt lat="44.84067" lon="2.03889">
        <ele>593.23</ele>
        <time>2018-11-04T13:24:38.000Z</time>
      </trkpt>
      <trkpt lat="44.84066" lon="2.0389">
        <ele>593.69</ele>
        <time>2018-11-04T13:30:58.000Z</time>
      </trkpt>
      <trkpt lat="44.84065" lon="2.03889">
        <ele>596.93</ele>
        <time>2018-11-04T13:32:44.000Z</time>
      </trkpt>
      <trkpt lat="44.84064" lon="2.0389">
        <ele>598.24</ele>
        <time>2018-11-04T13:33:55.000Z</time>
      </trkpt>
      <trkpt lat="44.84018" lon="2.03946">
        <ele>610.76</ele>
        <time>2018-11-04T13:41:05.000Z</time>
      </trkpt>
      <trkpt lat="44.8401" lon="2.03977">
        <ele>608.62</ele>
        <time>2018-11-04T13:41:23.000Z</time>
      </trkpt>
      <trkpt lat="44.84011" lon="2.03989">
        <ele>590.78</ele>
        <time>2018-11-04T13:41:41.000Z</time>
      </trkpt>
      <trkpt lat="44.84002" lon="2.04018">
        <ele>594.4</ele>
        <time>2018-11-04T13:41:59.000Z</time>
      </trkpt>
      <trkpt lat="44.84011" lon="2.04046">
        <ele>580.85</ele>
        <time>2018-11-04T13:42:18.000Z</time>
      </trkpt>
      <trkpt lat="44.83979" lon="2.0408">
        <ele>594</ele>
        <time>2018-11-04T13:42:36.000Z</time>
      </trkpt>
      <trkpt lat="44.83931" lon="2.04047">
        <ele>585.55</ele>
        <time>2018-11-04T13:42:55.000Z</time>
      </trkpt>
      <trkpt lat="44.83963" lon="2.04114">
        <ele>581.67</ele>
        <time>2018-11-04T13:43:13.000Z</time>
      </trkpt>
      <trkpt lat="44.83961" lon="2.04175">
        <ele>596.55</ele>
        <time>2018-11-04T13:43:31.000Z</time>
      </trkpt>
      <trkpt lat="44.83924" lon="2.04216">
        <ele>598.63</ele>
        <time>2018-11-04T13:43:49.000Z</time>
      </trkpt>
      <trkpt lat="44.83937" lon="2.04204">
        <ele>577.22</ele>
        <time>2018-11-04T13:44:07.000Z</time>
      </trkpt>
      <trkpt lat="44.83929" lon="2.04213">
        <ele>572.22</ele>
        <time>2018-11-04T13:44:25.000Z</time>
      </trkpt>
      <trkpt lat="44.83931" lon="2.04258">
        <ele>539.49</ele>
        <time>2018-11-04T13:44:43.000Z</time>
      </trkpt>
      <trkpt lat="44.83904" lon="2.04238">
        <ele>546</ele>
        <time>2018-11-04T13:45:01.000Z</time>
      </trkpt>
      <trkpt lat="44.83888" lon="2.04203">
        <ele>553.11</ele>
        <time>2018-11-04T13:45:19.000Z</time>
      </trkpt>
      <trkpt lat="44.83855" lon="2.04177">
        <ele>552.25</ele>
        <time>2018-11-04T13:45:37.000Z</time>
      </trkpt>
      <trkpt lat="44.83853" lon="2.04162">
        <ele>557.99</ele>
        <time>2018-11-04T13:45:55.000Z</time>
      </trkpt>
      <trkpt lat="44.83839" lon="2.04143">
        <ele>550.33</ele>
        <time>2018-11-04T13:46:13.000Z</time>
      </trkpt>
      <trkpt lat="44.83833" lon="2.04114">
        <ele>567.78</ele>
        <time>2018-11-04T13:46:31.000Z</time>
      </trkpt>
      <trkpt lat="44.83823" lon="2.04157">
        <ele>563.38</ele>
        <time>2018-11-04T13:46:49.000Z</time>
      </trkpt>
      <trkpt lat="44.83807" lon="2.04121">
        <ele>571.55</ele>
        <time>2018-11-04T13:47:07.000Z</time>
      </trkpt>
      <trkpt lat="44.83796" lon="2.04103">
        <ele>571.89</ele>
        <time>2018-11-04T13:47:26.000Z</time>
      </trkpt>
      <trkpt lat="44.83767" lon="2.04043">
        <ele>584.91</ele>
        <time>2018-11-04T13:47:44.000Z</time>
      </trkpt>
      <trkpt lat="44.83797" lon="2.04023">
        <ele>580.35</ele>
        <time>2018-11-04T13:48:02.000Z</time>
      </trkpt>
      <trkpt lat="44.8379" lon="2.03991">
        <ele>580.23</ele>
        <time>2018-11-04T13:48:20.000Z</time>
      </trkpt>
      <trkpt lat="44.83768" lon="2.03992">
        <ele>577.75</ele>
        <time>2018-11-04T13:48:38.000Z</time>
      </trkpt>
      <trkpt lat="44.83743" lon="2.03984">
        <ele>585.15</ele>
        <time>2018-11-04T13:48:56.000Z</time>
      </trkpt>
      <trkpt lat="44.83723" lon="2.03977">
        <ele>581.95</ele>
        <time>2018-11-04T13:49:14.000Z</time>
      </trkpt>
      <trkpt lat="44.83709" lon="2.03992">
        <ele>570.56</ele>
        <time>2018-11-04T13:49:32.000Z</time>
      </trkpt>
      <trkpt lat="44.83685" lon="2.03993">
        <ele>574.08</ele>
        <time>2018-11-04T13:49:50.000Z</time>
      </trkpt>
      <trkpt lat="44.83704" lon="2.0406">
        <ele>538.71</ele>
        <time>2018-11-04T13:50:08.000Z</time>
      </trkpt>
      <trkpt lat="44.83649" lon="2.04022">
        <ele>565.08</ele>
        <time>2018-11-04T13:50:27.000Z</time>
      </trkpt>
      <trkpt lat="44.83629" lon="2.04037">
        <ele>584.38</ele>
        <time>2018-11-04T13:50:45.000Z</time>
      </trkpt>
      <trkpt lat="44.83618" lon="2.04024">
        <ele>582.69</ele>
        <time>2018-11-04T13:51:03.000Z</time>
      </trkpt>
      <trkpt lat="44.83583" lon="2.04046">
        <ele>586.14</ele>
        <time>2018-11-04T13:51:22.000Z</time>
      </trkpt>
      <trkpt lat="44.8356" lon="2.04042">
        <ele>601.52</ele>
        <time>2018-11-04T13:51:40.000Z</time>
      </trkpt>
      <trkpt lat="44.8357" lon="2.04075">
        <ele>582.24</ele>
        <time>2018-11-04T13:51:58.000Z</time>
      </trkpt>
      <trkpt lat="44.83544" lon="2.04092">
        <ele>576.3</ele>
        <time>2018-11-04T13:52:17.000Z</time>
      </trkpt>
      <trkpt lat="44.83531" lon="2.04105">
        <ele>574.91</ele>
        <time>2018-11-04T13:52:35.000Z</time>
      </trkpt>
      <trkpt lat="44.83504" lon="2.04105">
        <ele>588.89</ele>
        <time>2018-11-04T13:52:54.000Z</time>
      </trkpt>
      <trkpt lat="44.83482" lon="2.04108">
        <ele>589.28</ele>
        <time>2018-11-04T13:53:13.000Z</time>
      </trkpt>
      <trkpt lat="44.8348" lon="2.0412">
        <ele>109.28</ele>
        <time>2018-11-04T13:53:25.000Z</time>
      </trkpt>
      <trkpt lat="44.8348" lon="2.04134">
        <ele>577.89</ele>
        <time>2018-11-04T13:53:35.000Z</time>
      </trkpt>
      <trkpt lat="44.83482" lon="2.04131">
        <ele>578.56</ele>
        <time>2018-11-04T13:53:45.000Z</time>
      </trkpt>
      <trkpt lat="44.83483" lon="2.0413">
        <ele>578.72</ele>
        <time>2018-11-04T13:53:55.000Z</time>
      </trkpt>
      <trkpt lat="44.83478" lon="2.04135">
        <ele>578.63</ele>
        <time>2018-11-04T13:54:05.000Z</time>
      </trkpt>
      <trkpt lat="44.83479" lon="2.04135">
        <ele>578.05</ele>
        <time>2018-11-04T13:54:15.000Z</time>
      </trkpt>
      <trkpt lat="44.83476" lon="2.04138">
        <ele>577.46</ele>
        <time>2018-11-04T13:54:25.000Z</time>
      </trkpt>
      <trkpt lat="44.83476" lon="2.04136">
        <ele>578.67</ele>
        <time>2018-11-04T13:54:55.000Z</time>
      </trkpt>
      <trkpt lat="44.83477" lon="2.04137">
        <ele>578.81</ele>
        <time>2018-11-04T13:55:18.000Z</time>
      </trkpt>
      <trkpt lat="44.83475" lon="2.04137">
        <ele>576.1</ele>
        <time>2018-11-04T13:55:28.000Z</time>
      </trkpt>
      <trkpt lat="44.83486" lon="2.0413">
        <ele>578.83</ele>
        <time>2018-11-04T13:55:48.000Z</time>
      </trkpt>
      <trkpt lat="44.83485" lon="2.04129">
        <ele>578.2</ele>
        <time>2018-11-04T13:56:22.000Z</time>
      </trkpt>
      <trkpt lat="44.83476" lon="2.04164">
        <ele>577.25</ele>
        <time>2018-11-04T13:56:59.000Z</time>
      </trkpt>
      <trkpt lat="44.83468" lon="2.0419">
        <ele>571.45</ele>
        <time>2018-11-04T13:57:17.000Z</time>
      </trkpt>
      <trkpt lat="44.8346" lon="2.04223">
        <ele>554.45</ele>
        <time>2018-11-04T13:57:36.000Z</time>
      </trkpt>
      <trkpt lat="44.83437" lon="2.042">
        <ele>564.88</ele>
        <time>2018-11-04T13:57:54.000Z</time>
      </trkpt>
      <trkpt lat="44.83412" lon="2.04185">
        <ele>569.57</ele>
        <time>2018-11-04T13:58:13.000Z</time>
      </trkpt>
      <trkpt lat="44.83391" lon="2.04197">
        <ele>570.9</ele>
        <time>2018-11-04T13:58:32.000Z</time>
      </trkpt>
      <trkpt lat="44.83379" lon="2.04211">
        <ele>573.46</ele>
        <time>2018-11-04T13:58:47.969Z</time>
      </trkpt>
      <trkpt lat="44.83381" lon="2.04211">
        <ele>566.97</ele>
        <time>2018-11-04T13:58:57.000Z</time>
      </trkpt>
      <trkpt lat="44.83376" lon="2.04218">
        <ele>566.07</ele>
        <time>2018-11-04T13:59:07.000Z</time>
      </trkpt>
      <trkpt lat="44.83366" lon="2.04226">
        <ele>567.76</ele>
        <time>2018-11-04T13:59:17.000Z</time>
      </trkpt>
      <trkpt lat="44.83356" lon="2.04239">
        <ele>567.66</ele>
        <time>2018-11-04T13:59:27.000Z</time>
      </trkpt>
      <trkpt lat="44.83348" lon="2.04245">
        <ele>565.22</ele>
        <time>2018-11-04T13:59:37.000Z</time>
      </trkpt>
      <trkpt lat="44.83348" lon="2.04247">
        <ele>568.14</ele>
        <time>2018-11-04T13:59:47.000Z</time>
      </trkpt>
      <trkpt lat="44.8334" lon="2.04255">
        <ele>568.02</ele>
        <time>2018-11-04T13:59:57.000Z</time>
      </trkpt>
      <trkpt lat="44.83335" lon="2.04272">
        <ele>566.17</ele>
        <time>2018-11-04T14:00:07.000Z</time>
      </trkpt>
      <trkpt lat="44.83333" lon="2.04284">
        <ele>564.31</ele>
        <time>2018-11-04T14:00:17.000Z</time>
      </trkpt>
      <trkpt lat="44.83331" lon="2.04301">
        <ele>563</ele>
        <time>2018-11-04T14:00:27.000Z</time>
      </trkpt>
      <trkpt lat="44.83331" lon="2.04316">
        <ele>561.44</ele>
        <time>2018-11-04T14:00:37.000Z</time>
      </trkpt>
      <trkpt lat="44.83335" lon="2.04329">
        <ele>562.49</ele>
        <time>2018-11-04T14:00:47.000Z</time>
      </trkpt>
      <trkpt lat="44.83345" lon="2.0434">
        <ele>562.47</ele>
        <time>2018-11-04T14:00:57.000Z</time>
      </trkpt>
      <trkpt lat="44.83356" lon="2.04385">
        <ele>574.23</ele>
        <time>2018-11-04T14:01:19.000Z</time>
      </trkpt>
      <trkpt lat="44.83368" lon="2.04391">
        <ele>557.22</ele>
        <time>2018-11-04T14:01:38.000Z</time>
      </trkpt>
      <trkpt lat="44.83372" lon="2.04434">
        <ele>556.86</ele>
        <time>2018-11-04T14:01:56.000Z</time>
      </trkpt>
      <trkpt lat="44.83384" lon="2.04444">
        <ele>549.18</ele>
        <time>2018-11-04T14:02:14.000Z</time>
      </trkpt>
      <trkpt lat="44.83367" lon="2.04481">
        <ele>566.61</ele>
        <time>2018-11-04T14:02:33.000Z</time>
      </trkpt>
      <trkpt lat="44.83359" lon="2.045">
        <ele>563.28</ele>
        <time>2018-11-04T14:02:51.000Z</time>
      </trkpt>
      <trkpt lat="44.83333" lon="2.04491">
        <ele>589.4</ele>
        <time>2018-11-04T14:03:09.000Z</time>
      </trkpt>
      <trkpt lat="44.83302" lon="2.04485">
        <ele>598.12</ele>
        <time>2018-11-04T14:03:28.000Z</time>
      </trkpt>
      <trkpt lat="44.83311" lon="2.04523">
        <ele>569.37</ele>
        <time>2018-11-04T14:03:46.000Z</time>
      </trkpt>
      <trkpt lat="44.83284" lon="2.04558">
        <ele>548.32</ele>
        <time>2018-11-04T14:04:04.000Z</time>
      </trkpt>
      <trkpt lat="44.83264" lon="2.04572">
        <ele>548.99</ele>
        <time>2018-11-04T14:04:22.000Z</time>
      </trkpt>
      <trkpt lat="44.83241" lon="2.04586">
        <ele>561.62</ele>
        <time>2018-11-04T14:04:41.000Z</time>
      </trkpt>
      <trkpt lat="44.83209" lon="2.04591">
        <ele>572.17</ele>
        <time>2018-11-04T14:05:00.000Z</time>
      </trkpt>
      <trkpt lat="44.83199" lon="2.04597">
        <ele>573.64</ele>
        <time>2018-11-04T14:05:19.000Z</time>
      </trkpt>
      <trkpt lat="44.83183" lon="2.04631">
        <ele>575.98</ele>
        <time>2018-11-04T14:05:37.000Z</time>
      </trkpt>
      <trkpt lat="44.83173" lon="2.04655">
        <ele>577.04</ele>
        <time>2018-11-04T14:05:55.000Z</time>
      </trkpt>
      <trkpt lat="44.83161" lon="2.04677">
        <ele>563.89</ele>
        <time>2018-11-04T14:06:13.000Z</time>
      </trkpt>
      <trkpt lat="44.8315" lon="2.04701">
        <ele>563.26</ele>
        <time>2018-11-04T14:06:32.000Z</time>
      </trkpt>
      <trkpt lat="44.83138" lon="2.04715">
        <ele>568.66</ele>
        <time>2018-11-04T14:06:50.000Z</time>
      </trkpt>
      <trkpt lat="44.83114" lon="2.04696">
        <ele>581.71</ele>
        <time>2018-11-04T14:07:08.000Z</time>
      </trkpt>
      <trkpt lat="44.83104" lon="2.04705">
        <ele>569.95</ele>
        <time>2018-11-04T14:07:26.000Z</time>
      </trkpt>
      <trkpt lat="44.83072" lon="2.04705">
        <ele>566.45</ele>
        <time>2018-11-04T14:07:44.000Z</time>
      </trkpt>
      <trkpt lat="44.83061" lon="2.04732">
        <ele>561.01</ele>
        <time>2018-11-04T14:08:02.000Z</time>
      </trkpt>
      <trkpt lat="44.83061" lon="2.04746">
        <ele>571.04</ele>
        <time>2018-11-04T14:08:20.000Z</time>
      </trkpt>
      <trkpt lat="44.83053" lon="2.04764">
        <ele>569.68</ele>
        <time>2018-11-04T14:08:40.000Z</time>
      </trkpt>
      <trkpt lat="44.8305" lon="2.04768">
        <ele>569.69</ele>
        <time>2018-11-04T14:08:50.000Z</time>
      </trkpt>
      <trkpt lat="44.83053" lon="2.04758">
        <ele>567.96</ele>
        <time>2018-11-04T14:09:01.000Z</time>
      </trkpt>
      <trkpt lat="44.83064" lon="2.04737">
        <ele>569.63</ele>
        <time>2018-11-04T14:09:20.000Z</time>
      </trkpt>
      <trkpt lat="44.83083" lon="2.04696">
        <ele>558.23</ele>
        <time>2018-11-04T14:09:38.000Z</time>
      </trkpt>
      <trkpt lat="44.83083" lon="2.04682">
        <ele>561.81</ele>
        <time>2018-11-04T14:09:56.000Z</time>
      </trkpt>
      <trkpt lat="44.83081" lon="2.04657">
        <ele>567.55</ele>
        <time>2018-11-04T14:10:15.000Z</time>
      </trkpt>
      <trkpt lat="44.83086" lon="2.04623">
        <ele>555.39</ele>
        <time>2018-11-04T14:10:34.000Z</time>
      </trkpt>
      <trkpt lat="44.83073" lon="2.04597">
        <ele>561.51</ele>
        <time>2018-11-04T14:10:52.000Z</time>
      </trkpt>
      <trkpt lat="44.83066" lon="2.04563">
        <ele>565.1</ele>
        <time>2018-11-04T14:11:10.000Z</time>
      </trkpt>
      <trkpt lat="44.83066" lon="2.04533">
        <ele>559.38</ele>
        <time>2018-11-04T14:11:29.000Z</time>
      </trkpt>
      <trkpt lat="44.83051" lon="2.0453">
        <ele>559.51</ele>
        <time>2018-11-04T14:11:47.000Z</time>
      </trkpt>
      <trkpt lat="44.83034" lon="2.04518">
        <ele>553.64</ele>
        <time>2018-11-04T14:12:05.000Z</time>
      </trkpt>
      <trkpt lat="44.83001" lon="2.04496">
        <ele>549.4</ele>
        <time>2018-11-04T14:12:23.000Z</time>
      </trkpt>
      <trkpt lat="44.8299" lon="2.04518">
        <ele>550.43</ele>
        <time>2018-11-04T14:12:41.000Z</time>
      </trkpt>
      <trkpt lat="44.82964" lon="2.04508">
        <ele>554.77</ele>
        <time>2018-11-04T14:13:01.000Z</time>
      </trkpt>
      <trkpt lat="44.8295" lon="2.04504">
        <ele>551.13</ele>
        <time>2018-11-04T14:13:20.000Z</time>
      </trkpt>
      <trkpt lat="44.82943" lon="2.04524">
        <ele>555.34</ele>
        <time>2018-11-04T14:13:39.000Z</time>
      </trkpt>
      <trkpt lat="44.82916" lon="2.04522">
        <ele>549.81</ele>
        <time>2018-11-04T14:13:59.000Z</time>
      </trkpt>
      <trkpt lat="44.82902" lon="2.04539">
        <ele>528.15</ele>
        <time>2018-11-04T14:14:17.000Z</time>
      </trkpt>
      <trkpt lat="44.82888" lon="2.0451">
        <ele>531.62</ele>
        <time>2018-11-04T14:14:36.000Z</time>
      </trkpt>
      <trkpt lat="44.8287" lon="2.04502">
        <ele>532.4</ele>
        <time>2018-11-04T14:14:55.000Z</time>
      </trkpt>
      <trkpt lat="44.82857" lon="2.04481">
        <ele>529.27</ele>
        <time>2018-11-04T14:15:13.000Z</time>
      </trkpt>
      <trkpt lat="44.82846" lon="2.04463">
        <ele>532.67</ele>
        <time>2018-11-04T14:15:32.000Z</time>
      </trkpt>
      <trkpt lat="44.82832" lon="2.0445">
        <ele>533.69</ele>
        <time>2018-11-04T14:15:50.000Z</time>
      </trkpt>
      <trkpt lat="44.82833" lon="2.04453">
        <ele>533.52</ele>
        <time>2018-11-04T14:16:09.000Z</time>
      </trkpt>
      <trkpt lat="44.82824" lon="2.04461">
        <ele>535.75</ele>
        <time>2018-11-04T14:16:27.000Z</time>
      </trkpt>
      <trkpt lat="44.82819" lon="2.04466">
        <ele>536.06</ele>
        <time>2018-11-04T14:16:45.000Z</time>
      </trkpt>
      <trkpt lat="44.8282" lon="2.04462">
        <ele>535.49</ele>
        <time>2018-11-04T14:17:03.000Z</time>
      </trkpt>
      <trkpt lat="44.82823" lon="2.0445">
        <ele>534.21</ele>
        <time>2018-11-04T14:17:21.000Z</time>
      </trkpt>
      <trkpt lat="44.82838" lon="2.04444">
        <ele>531.81</ele>
        <time>2018-11-04T14:17:39.000Z</time>
      </trkpt>
      <trkpt lat="44.82826" lon="2.04421">
        <ele>531.94</ele>
        <time>2018-11-04T14:17:57.000Z</time>
      </trkpt>
      <trkpt lat="44.82816" lon="2.04398">
        <ele>530.58</ele>
        <time>2018-11-04T14:18:15.000Z</time>
      </trkpt>
      <trkpt lat="44.82809" lon="2.04375">
        <ele>530.81</ele>
        <time>2018-11-04T14:18:33.000Z</time>
      </trkpt>
      <trkpt lat="44.828" lon="2.0435">
        <ele>530.43</ele>
        <time>2018-11-04T14:18:49.322Z</time>
      </trkpt>
      <trkpt lat="44.82794" lon="2.04317">
        <ele>533.61</ele>
        <time>2018-11-04T14:19:11.000Z</time>
      </trkpt>
      <trkpt lat="44.82783" lon="2.04296">
        <ele>530.54</ele>
        <time>2018-11-04T14:19:29.000Z</time>
      </trkpt>
      <trkpt lat="44.82779" lon="2.04247">
        <ele>517.03</ele>
        <time>2018-11-04T14:19:47.000Z</time>
      </trkpt>
      <trkpt lat="44.82772" lon="2.04287">
        <ele>500.56</ele>
        <time>2018-11-04T14:20:05.000Z</time>
      </trkpt>
      <trkpt lat="44.82786" lon="2.04247">
        <ele>513.22</ele>
        <time>2018-11-04T14:20:22.000Z</time>
      </trkpt>
      <trkpt lat="44.82773" lon="2.04259">
        <ele>521.09</ele>
        <time>2018-11-04T14:20:40.000Z</time>
      </trkpt>
      <trkpt lat="44.82774" lon="2.04247">
        <ele>526.62</ele>
        <time>2018-11-04T14:20:58.000Z</time>
      </trkpt>
      <trkpt lat="44.82762" lon="2.04235">
        <ele>529.65</ele>
        <time>2018-11-04T14:21:16.000Z</time>
      </trkpt>
      <trkpt lat="44.82759" lon="2.04236">
        <ele>530.87</ele>
        <time>2018-11-04T14:21:34.000Z</time>
      </trkpt>
      <trkpt lat="44.8276" lon="2.04237">
        <ele>531.84</ele>
        <time>2018-11-04T14:21:52.000Z</time>
      </trkpt>
      <trkpt lat="44.82763" lon="2.04245">
        <ele>530.25</ele>
        <time>2018-11-04T14:22:28.000Z</time>
      </trkpt>
      <trkpt lat="44.82754" lon="2.04219">
        <ele>531.26</ele>
        <time>2018-11-04T14:22:47.000Z</time>
      </trkpt>
      <trkpt lat="44.82762" lon="2.04227">
        <ele>519.08</ele>
        <time>2018-11-04T14:23:06.000Z</time>
      </trkpt>
      <trkpt lat="44.82759" lon="2.04229">
        <ele>520.24</ele>
        <time>2018-11-04T14:23:21.632Z</time>
      </trkpt>
      <trkpt lat="44.82758" lon="2.04224">
        <ele>520.81</ele>
        <time>2018-11-04T14:23:56.000Z</time>
      </trkpt>
      <trkpt lat="44.82757" lon="2.04225">
        <ele>523.61</ele>
        <time>2018-11-04T14:24:13.000Z</time>
      </trkpt>
      <trkpt lat="44.82757" lon="2.04223">
        <ele>523.17</ele>
        <time>2018-11-04T14:24:30.000Z</time>
      </trkpt>
      <trkpt lat="44.82755" lon="2.04221">
        <ele>527.15</ele>
        <time>2018-11-04T14:24:48.000Z</time>
      </trkpt>
      <trkpt lat="44.82754" lon="2.04222">
        <ele>529.68</ele>
        <time>2018-11-04T14:26:34.000Z</time>
      </trkpt>
      <trkpt lat="44.82753" lon="2.04223">
        <ele>530.48</ele>
        <time>2018-11-04T14:27:24.624Z</time>
      </trkpt>
      <trkpt lat="44.82754" lon="2.04224">
        <ele>530.98</ele>
        <time>2018-11-04T14:32:36.000Z</time>
      </trkpt>
      <trkpt lat="44.82755" lon="2.04221">
        <ele>531.04</ele>
        <time>2018-11-04T14:32:46.000Z</time>
      </trkpt>
      <trkpt lat="44.82755" lon="2.04223">
        <ele>541.35</ele>
        <time>2018-11-04T14:33:18.000Z</time>
      </trkpt>
      <trkpt lat="44.82754" lon="2.04229">
        <ele>547.46</ele>
        <time>2018-11-04T14:33:36.000Z</time>
      </trkpt>
      <trkpt lat="44.82749" lon="2.04232">
        <ele>542.06</ele>
        <time>2018-11-04T14:33:48.000Z</time>
      </trkpt>
      <trkpt lat="44.82752" lon="2.04224">
        <ele>543.88</ele>
        <time>2018-11-04T14:34:06.000Z</time>
      </trkpt>
      <trkpt lat="44.82751" lon="2.04223">
        <ele>536.96</ele>
        <time>2018-11-04T14:34:24.000Z</time>
      </trkpt>
      <trkpt lat="44.82753" lon="2.04221">
        <ele>533.96</ele>
        <time>2018-11-04T14:34:42.000Z</time>
      </trkpt>
      <trkpt lat="44.82755" lon="2.04223">
        <ele>533.15</ele>
        <time>2018-11-04T14:35:01.000Z</time>
      </trkpt>
      <trkpt lat="44.82754" lon="2.04225">
        <ele>534.54</ele>
        <time>2018-11-04T14:35:18.000Z</time>
      </trkpt>
      <trkpt lat="44.8275" lon="2.0423">
        <ele>540.04</ele>
        <time>2018-11-04T14:35:37.000Z</time>
      </trkpt>
      <trkpt lat="44.82751" lon="2.04228">
        <ele>540.49</ele>
        <time>2018-11-04T14:35:56.000Z</time>
      </trkpt>
      <trkpt lat="44.82752" lon="2.04226">
        <ele>539.75</ele>
        <time>2018-11-04T14:36:51.000Z</time>
      </trkpt>
      <trkpt lat="44.82752" lon="2.04225">
        <ele>538.2</ele>
        <time>2018-11-04T14:37:10.000Z</time>
      </trkpt>
      <trkpt lat="44.82753" lon="2.04224">
        <ele>536.41</ele>
        <time>2018-11-04T14:41:51.000Z</time>
      </trkpt>
      <trkpt lat="44.82753" lon="2.04217">
        <ele>543.97</ele>
        <time>2018-11-04T14:43:36.000Z</time>
      </trkpt>
      <trkpt lat="44.82734" lon="2.0419">
        <ele>539.09</ele>
        <time>2018-11-04T14:43:54.000Z</time>
      </trkpt>
      <trkpt lat="44.82726" lon="2.04182">
        <ele>559.5</ele>
        <time>2018-11-04T14:44:13.000Z</time>
      </trkpt>
      <trkpt lat="44.82726" lon="2.04179">
        <ele>552.86</ele>
        <time>2018-11-04T14:44:31.000Z</time>
      </trkpt>
      <trkpt lat="44.82731" lon="2.04143">
        <ele>538.76</ele>
        <time>2018-11-04T14:44:49.000Z</time>
      </trkpt>
      <trkpt lat="44.82773" lon="2.04115">
        <ele>545.65</ele>
        <time>2018-11-04T14:45:08.000Z</time>
      </trkpt>
      <trkpt lat="44.82774" lon="2.04086">
        <ele>546.48</ele>
        <time>2018-11-04T14:45:26.000Z</time>
      </trkpt>
      <trkpt lat="44.82771" lon="2.04069">
        <ele>541.63</ele>
        <time>2018-11-04T14:45:44.000Z</time>
      </trkpt>
      <trkpt lat="44.82752" lon="2.04036">
        <ele>536.79</ele>
        <time>2018-11-04T14:46:02.000Z</time>
      </trkpt>
      <trkpt lat="44.82752" lon="2.04022">
        <ele>526.86</ele>
        <time>2018-11-04T14:46:20.000Z</time>
      </trkpt>
      <trkpt lat="44.82747" lon="2.03986">
        <ele>532.06</ele>
        <time>2018-11-04T14:46:38.000Z</time>
      </trkpt>
      <trkpt lat="44.82737" lon="2.03953">
        <ele>518.35</ele>
        <time>2018-11-04T14:46:56.000Z</time>
      </trkpt>
      <trkpt lat="44.82731" lon="2.03941">
        <ele>518.29</ele>
        <time>2018-11-04T14:47:15.000Z</time>
      </trkpt>
      <trkpt lat="44.82709" lon="2.03933">
        <ele>561.73</ele>
        <time>2018-11-04T14:47:32.000Z</time>
      </trkpt>
      <trkpt lat="44.82705" lon="2.03981">
        <ele>565.92</ele>
        <time>2018-11-04T14:47:50.000Z</time>
      </trkpt>
      <trkpt lat="44.82697" lon="2.03943">
        <ele>534.9</ele>
        <time>2018-11-04T14:48:08.000Z</time>
      </trkpt>
      <trkpt lat="44.82674" lon="2.03957">
        <ele>540.18</ele>
        <time>2018-11-04T14:48:26.000Z</time>
      </trkpt>
      <trkpt lat="44.82663" lon="2.03972">
        <ele>558.12</ele>
        <time>2018-11-04T14:48:44.000Z</time>
      </trkpt>
      <trkpt lat="44.82651" lon="2.04011">
        <ele>551.53</ele>
        <time>2018-11-04T14:49:02.000Z</time>
      </trkpt>
      <trkpt lat="44.82639" lon="2.04009">
        <ele>540.95</ele>
        <time>2018-11-04T14:49:20.000Z</time>
      </trkpt>
      <trkpt lat="44.8262" lon="2.04025">
        <ele>530.46</ele>
        <time>2018-11-04T14:49:38.000Z</time>
      </trkpt>
      <trkpt lat="44.82619" lon="2.03976">
        <ele>540.66</ele>
        <time>2018-11-04T14:49:56.000Z</time>
      </trkpt>
      <trkpt lat="44.82607" lon="2.04005">
        <ele>546.69</ele>
        <time>2018-11-04T14:50:15.000Z</time>
      </trkpt>
      <trkpt lat="44.82573" lon="2.04044">
        <ele>539.62</ele>
        <time>2018-11-04T14:50:33.000Z</time>
      </trkpt>
      <trkpt lat="44.8255" lon="2.04055">
        <ele>549.63</ele>
        <time>2018-11-04T14:50:51.000Z</time>
      </trkpt>
      <trkpt lat="44.82541" lon="2.04061">
        <ele>531.36</ele>
        <time>2018-11-04T14:51:09.000Z</time>
      </trkpt>
      <trkpt lat="44.82512" lon="2.04061">
        <ele>530.68</ele>
        <time>2018-11-04T14:51:27.000Z</time>
      </trkpt>
      <trkpt lat="44.82508" lon="2.04063">
        <ele>533.9</ele>
        <time>2018-11-04T14:51:44.000Z</time>
      </trkpt>
      <trkpt lat="44.82482" lon="2.04084">
        <ele>538.29</ele>
        <time>2018-11-04T14:52:02.000Z</time>
      </trkpt>
      <trkpt lat="44.82454" lon="2.04088">
        <ele>541.32</ele>
        <time>2018-11-04T14:52:21.000Z</time>
      </trkpt>
      <trkpt lat="44.82466" lon="2.04075">
        <ele>533.13</ele>
        <time>2018-11-04T14:52:39.000Z</time>
      </trkpt>
      <trkpt lat="44.82462" lon="2.04085">
        <ele>542.7</ele>
        <time>2018-11-04T14:52:57.000Z</time>
      </trkpt>
      <trkpt lat="44.82461" lon="2.04086">
        <ele>547.88</ele>
        <time>2018-11-04T14:53:12.593Z</time>
      </trkpt>
      <trkpt lat="44.82462" lon="2.04083">
        <ele>549.63</ele>
        <time>2018-11-04T14:53:30.000Z</time>
      </trkpt>
      <trkpt lat="44.82464" lon="2.04081">
        <ele>547.04</ele>
        <time>2018-11-04T14:54:05.000Z</time>
      </trkpt>
      <trkpt lat="44.82464" lon="2.04086">
        <ele>542.7</ele>
        <time>2018-11-04T14:54:23.000Z</time>
      </trkpt>
      <trkpt lat="44.82463" lon="2.04084">
        <ele>539.96</ele>
        <time>2018-11-04T14:54:41.000Z</time>
      </trkpt>
      <trkpt lat="44.82461" lon="2.04079">
        <ele>535.74</ele>
        <time>2018-11-04T14:54:59.000Z</time>
      </trkpt>
      <trkpt lat="44.82454" lon="2.04074">
        <ele>531.25</ele>
        <time>2018-11-04T14:55:16.000Z</time>
      </trkpt>
      <trkpt lat="44.82443" lon="2.04086">
        <ele>533.89</ele>
        <time>2018-11-04T14:55:35.000Z</time>
      </trkpt>
      <trkpt lat="44.82424" lon="2.04072">
        <ele>529.4</ele>
        <time>2018-11-04T14:55:50.621Z</time>
      </trkpt>
      <trkpt lat="44.82441" lon="2.04111">
        <ele>536.62</ele>
        <time>2018-11-04T14:56:08.000Z</time>
      </trkpt>
      <trkpt lat="44.82435" lon="2.0408">
        <ele>548.79</ele>
        <time>2018-11-04T14:56:26.000Z</time>
      </trkpt>
      <trkpt lat="44.82434" lon="2.04086">
        <ele>550.76</ele>
        <time>2018-11-04T14:56:43.000Z</time>
      </trkpt>
      <trkpt lat="44.82428" lon="2.04096">
        <ele>547.34</ele>
        <time>2018-11-04T14:57:01.000Z</time>
      </trkpt>
      <trkpt lat="44.82426" lon="2.04099">
        <ele>545.12</ele>
        <time>2018-11-04T14:57:16.607Z</time>
      </trkpt>
      <trkpt lat="44.82427" lon="2.04096">
        <ele>543.58</ele>
        <time>2018-11-04T14:57:34.000Z</time>
      </trkpt>
      <trkpt lat="44.82428" lon="2.04097">
        <ele>544.3</ele>
        <time>2018-11-04T14:58:08.000Z</time>
      </trkpt>
      <trkpt lat="44.82426" lon="2.04099">
        <ele>542.77</ele>
        <time>2018-11-04T14:58:44.000Z</time>
      </trkpt>
      <trkpt lat="44.82425" lon="2.04101">
        <ele>543.55</ele>
        <time>2018-11-04T14:59:36.000Z</time>
      </trkpt>
      <trkpt lat="44.82425" lon="2.04103">
        <ele>544.83</ele>
        <time>2018-11-04T15:00:10.000Z</time>
      </trkpt>
      <trkpt lat="44.82426" lon="2.04103">
        <ele>539.73</ele>
        <time>2018-11-04T15:00:44.000Z</time>
      </trkpt>
      <trkpt lat="44.82426" lon="2.04102">
        <ele>537.76</ele>
        <time>2018-11-04T15:01:17.608Z</time>
      </trkpt>
      <trkpt lat="44.82426" lon="2.04107">
        <ele>533.6</ele>
        <time>2018-11-04T15:02:10.000Z</time>
      </trkpt>
      <trkpt lat="44.82425" lon="2.04103">
        <ele>534.17</ele>
        <time>2018-11-04T15:02:28.000Z</time>
      </trkpt>
      <trkpt lat="44.82425" lon="2.04106">
        <ele>532.55</ele>
        <time>2018-11-04T15:02:46.000Z</time>
      </trkpt>
      <trkpt lat="44.82428" lon="2.04108">
        <ele>527.64</ele>
        <time>2018-11-04T15:03:04.000Z</time>
      </trkpt>
      <trkpt lat="44.82427" lon="2.04103">
        <ele>530.83</ele>
        <time>2018-11-04T15:03:22.000Z</time>
      </trkpt>
      <trkpt lat="44.82427" lon="2.04104">
        <ele>532.25</ele>
        <time>2018-11-04T15:04:14.000Z</time>
      </trkpt>
      <trkpt lat="44.82423" lon="2.04105">
        <ele>545.69</ele>
        <time>2018-11-04T15:04:50.000Z</time>
      </trkpt>
      <trkpt lat="44.82424" lon="2.04103">
        <ele>548.01</ele>
        <time>2018-11-04T15:05:05.621Z</time>
      </trkpt>
      <trkpt lat="44.82426" lon="2.04103">
        <ele>543.93</ele>
        <time>2018-11-04T15:05:23.000Z</time>
      </trkpt>
      <trkpt lat="44.82428" lon="2.04103">
        <ele>543.3</ele>
        <time>2018-11-04T15:05:40.000Z</time>
      </trkpt>
      <trkpt lat="44.82429" lon="2.04102">
        <ele>538.82</ele>
        <time>2018-11-04T15:05:58.000Z</time>
      </trkpt>
      <trkpt lat="44.82427" lon="2.04102">
        <ele>536.85</ele>
        <time>2018-11-04T15:06:32.000Z</time>
      </trkpt>
      <trkpt lat="44.82427" lon="2.04098">
        <ele>536.05</ele>
        <time>2018-11-04T15:06:49.000Z</time>
      </trkpt>
      <trkpt lat="44.82426" lon="2.041">
        <ele>536.07</ele>
        <time>2018-11-04T15:07:04.636Z</time>
      </trkpt>
      <trkpt lat="44.82393" lon="2.04122">
        <ele>532.94</ele>
        <time>2018-11-04T15:07:24.000Z</time>
      </trkpt>
      <trkpt lat="44.82383" lon="2.04147">
        <ele>535.4</ele>
        <time>2018-11-04T15:07:42.000Z</time>
      </trkpt>
      <trkpt lat="44.82367" lon="2.04173">
        <ele>533.5</ele>
        <time>2018-11-04T15:08:00.000Z</time>
      </trkpt>
      <trkpt lat="44.82343" lon="2.04198">
        <ele>536.12</ele>
        <time>2018-11-04T15:08:19.000Z</time>
      </trkpt>
      <trkpt lat="44.82314" lon="2.04203">
        <ele>542.98</ele>
        <time>2018-11-04T15:08:38.000Z</time>
      </trkpt>
      <trkpt lat="44.82315" lon="2.04215">
        <ele>547.75</ele>
        <time>2018-11-04T15:08:57.000Z</time>
      </trkpt>
      <trkpt lat="44.82316" lon="2.04212">
        <ele>545.79</ele>
        <time>2018-11-04T15:09:15.000Z</time>
      </trkpt>
      <trkpt lat="44.82305" lon="2.04209">
        <ele>537.34</ele>
        <time>2018-11-04T15:09:33.000Z</time>
      </trkpt>
      <trkpt lat="44.82275" lon="2.04248">
        <ele>537.96</ele>
        <time>2018-11-04T15:09:51.000Z</time>
      </trkpt>
      <trkpt lat="44.82252" lon="2.04276">
        <ele>537.72</ele>
        <time>2018-11-04T15:10:09.000Z</time>
      </trkpt>
      <trkpt lat="44.82245" lon="2.04299">
        <ele>533.55</ele>
        <time>2018-11-04T15:10:27.000Z</time>
      </trkpt>
      <trkpt lat="44.82268" lon="2.04317">
        <ele>531.61</ele>
        <time>2018-11-04T15:10:45.000Z</time>
      </trkpt>
      <trkpt lat="44.82288" lon="2.04339">
        <ele>532.26</ele>
        <time>2018-11-04T15:11:03.000Z</time>
      </trkpt>
      <trkpt lat="44.82305" lon="2.04339">
        <ele>533.72</ele>
        <time>2018-11-04T15:11:21.000Z</time>
      </trkpt>
      <trkpt lat="44.82326" lon="2.04319">
        <ele>532.21</ele>
        <time>2018-11-04T15:11:39.000Z</time>
      </trkpt>
      <trkpt lat="44.82346" lon="2.04307">
        <ele>532.43</ele>
        <time>2018-11-04T15:11:57.000Z</time>
      </trkpt>
      <trkpt lat="44.8237" lon="2.04305">
        <ele>536.43</ele>
        <time>2018-11-04T15:12:15.000Z</time>
      </trkpt>
      <trkpt lat="44.82384" lon="2.04296">
        <ele>532.66</ele>
        <time>2018-11-04T15:12:32.000Z</time>
      </trkpt>
      <trkpt lat="44.82413" lon="2.04286">
        <ele>530.37</ele>
        <time>2018-11-04T15:12:51.000Z</time>
      </trkpt>
      <trkpt lat="44.82435" lon="2.04255">
        <ele>561.97</ele>
        <time>2018-11-04T15:13:10.000Z</time>
      </trkpt>
      <trkpt lat="44.82431" lon="2.04239">
        <ele>543.19</ele>
        <time>2018-11-04T15:13:29.000Z</time>
      </trkpt>
      <trkpt lat="44.82442" lon="2.04242">
        <ele>526.92</ele>
        <time>2018-11-04T15:13:47.000Z</time>
      </trkpt>
      <trkpt lat="44.82448" lon="2.04235">
        <ele>523.76</ele>
        <time>2018-11-04T15:14:05.000Z</time>
      </trkpt>
      <trkpt lat="44.8249" lon="2.04236">
        <ele>526.5</ele>
        <time>2018-11-04T15:14:24.000Z</time>
      </trkpt>
      <trkpt lat="44.82479" lon="2.04241">
        <ele>520.73</ele>
        <time>2018-11-04T15:14:43.000Z</time>
      </trkpt>
      <trkpt lat="44.82508" lon="2.04246">
        <ele>531.09</ele>
        <time>2018-11-04T15:15:01.000Z</time>
      </trkpt>
      <trkpt lat="44.82514" lon="2.04235">
        <ele>536.27</ele>
        <time>2018-11-04T15:15:19.000Z</time>
      </trkpt>
      <trkpt lat="44.82541" lon="2.04238">
        <ele>539.71</ele>
        <time>2018-11-04T15:15:38.000Z</time>
      </trkpt>
      <trkpt lat="44.82546" lon="2.0424">
        <ele>599.88</ele>
        <time>2018-11-04T15:15:57.000Z</time>
      </trkpt>
      <trkpt lat="44.82552" lon="2.04234">
        <ele>547.15</ele>
        <time>2018-11-04T15:16:15.000Z</time>
      </trkpt>
      <trkpt lat="44.82561" lon="2.04237">
        <ele>535.34</ele>
        <time>2018-11-04T15:16:33.000Z</time>
      </trkpt>
      <trkpt lat="44.82569" lon="2.04234">
        <ele>531.62</ele>
        <time>2018-11-04T15:16:51.000Z</time>
      </trkpt>
      <trkpt lat="44.82588" lon="2.04234">
        <ele>531.1</ele>
        <time>2018-11-04T15:17:09.000Z</time>
      </trkpt>
      <trkpt lat="44.82612" lon="2.04244">
        <ele>530.89</ele>
        <time>2018-11-04T15:17:27.000Z</time>
      </trkpt>
      <trkpt lat="44.82639" lon="2.04265">
        <ele>558.59</ele>
        <time>2018-11-04T15:17:45.000Z</time>
      </trkpt>
      <trkpt lat="44.82632" lon="2.0429">
        <ele>538.39</ele>
        <time>2018-11-04T15:18:03.000Z</time>
      </trkpt>
      <trkpt lat="44.82612" lon="2.04303">
        <ele>533.67</ele>
        <time>2018-11-04T15:18:21.000Z</time>
      </trkpt>
      <trkpt lat="44.82598" lon="2.0433">
        <ele>532</ele>
        <time>2018-11-04T15:18:39.000Z</time>
      </trkpt>
      <trkpt lat="44.82579" lon="2.0435">
        <ele>530.89</ele>
        <time>2018-11-04T15:18:57.000Z</time>
      </trkpt>
      <trkpt lat="44.82545" lon="2.04379">
        <ele>532.28</ele>
        <time>2018-11-04T15:19:16.000Z</time>
      </trkpt>
      <trkpt lat="44.82519" lon="2.04406">
        <ele>545.22</ele>
        <time>2018-11-04T15:19:34.000Z</time>
      </trkpt>
      <trkpt lat="44.82507" lon="2.04393">
        <ele>547.23</ele>
        <time>2018-11-04T15:19:52.000Z</time>
      </trkpt>
      <trkpt lat="44.82476" lon="2.04392">
        <ele>544.61</ele>
        <time>2018-11-04T15:20:10.000Z</time>
      </trkpt>
      <trkpt lat="44.82455" lon="2.04412">
        <ele>522.81</ele>
        <time>2018-11-04T15:20:29.000Z</time>
      </trkpt>
      <trkpt lat="44.82434" lon="2.0441">
        <ele>536.29</ele>
        <time>2018-11-04T15:20:48.000Z</time>
      </trkpt>
      <trkpt lat="44.82422" lon="2.04395">
        <ele>546.88</ele>
        <time>2018-11-04T15:21:07.000Z</time>
      </trkpt>
      <trkpt lat="44.824" lon="2.04398">
        <ele>546.28</ele>
        <time>2018-11-04T15:21:26.000Z</time>
      </trkpt>
      <trkpt lat="44.82404" lon="2.04425">
        <ele>534.85</ele>
        <time>2018-11-04T15:21:45.000Z</time>
      </trkpt>
      <trkpt lat="44.824" lon="2.04459">
        <ele>534.79</ele>
        <time>2018-11-04T15:22:05.000Z</time>
      </trkpt>
      <trkpt lat="44.82397" lon="2.04498">
        <ele>536.14</ele>
        <time>2018-11-04T15:22:24.000Z</time>
      </trkpt>
      <trkpt lat="44.82392" lon="2.04531">
        <ele>536.45</ele>
        <time>2018-11-04T15:22:42.000Z</time>
      </trkpt>
      <trkpt lat="44.82397" lon="2.04538">
        <ele>517.66</ele>
        <time>2018-11-04T15:23:02.000Z</time>
      </trkpt>
      <trkpt lat="44.82394" lon="2.04568">
        <ele>520.87</ele>
        <time>2018-11-04T15:23:20.000Z</time>
      </trkpt>
      <trkpt lat="44.82374" lon="2.04618">
        <ele>528.49</ele>
        <time>2018-11-04T15:23:39.000Z</time>
      </trkpt>
      <trkpt lat="44.82369" lon="2.04643">
        <ele>534.38</ele>
        <time>2018-11-04T15:23:58.000Z</time>
      </trkpt>
      <trkpt lat="44.82371" lon="2.04671">
        <ele>534.1</ele>
        <time>2018-11-04T15:24:17.000Z</time>
      </trkpt>
      <trkpt lat="44.8236" lon="2.04703">
        <ele>534.73</ele>
        <time>2018-11-04T15:24:35.000Z</time>
      </trkpt>
      <trkpt lat="44.8236" lon="2.04736">
        <ele>531.33</ele>
        <time>2018-11-04T15:24:55.000Z</time>
      </trkpt>
      <trkpt lat="44.82352" lon="2.04765">
        <ele>533.04</ele>
        <time>2018-11-04T15:25:14.000Z</time>
      </trkpt>
      <trkpt lat="44.8235" lon="2.04804">
        <ele>540.01</ele>
        <time>2018-11-04T15:25:34.000Z</time>
      </trkpt>
      <trkpt lat="44.82344" lon="2.04822">
        <ele>538.18</ele>
        <time>2018-11-04T15:25:52.000Z</time>
      </trkpt>
      <trkpt lat="44.82328" lon="2.04861">
        <ele>538.62</ele>
        <time>2018-11-04T15:26:11.000Z</time>
      </trkpt>
      <trkpt lat="44.8232" lon="2.04865">
        <ele>533.69</ele>
        <time>2018-11-04T15:26:30.000Z</time>
      </trkpt>
      <trkpt lat="44.8232" lon="2.04876">
        <ele>526.61</ele>
        <time>2018-11-04T15:27:04.000Z</time>
      </trkpt>
      <trkpt lat="44.82306" lon="2.04925">
        <ele>529.62</ele>
        <time>2018-11-04T15:27:22.000Z</time>
      </trkpt>
      <trkpt lat="44.82303" lon="2.04952">
        <ele>529.28</ele>
        <time>2018-11-04T15:27:41.000Z</time>
      </trkpt>
      <trkpt lat="44.82294" lon="2.04992">
        <ele>533.32</ele>
        <time>2018-11-04T15:28:01.000Z</time>
      </trkpt>
      <trkpt lat="44.82287" lon="2.0502">
        <ele>532.72</ele>
        <time>2018-11-04T15:28:20.000Z</time>
      </trkpt>
      <trkpt lat="44.82273" lon="2.05053">
        <ele>535.52</ele>
        <time>2018-11-04T15:28:38.000Z</time>
      </trkpt>
      <trkpt lat="44.82272" lon="2.05079">
        <ele>539.84</ele>
        <time>2018-11-04T15:28:56.000Z</time>
      </trkpt>
      <trkpt lat="44.82275" lon="2.05075">
        <ele>536.19</ele>
        <time>2018-11-04T15:29:13.000Z</time>
      </trkpt>
      <trkpt lat="44.82275" lon="2.0512">
        <ele>534.06</ele>
        <time>2018-11-04T15:29:31.000Z</time>
      </trkpt>
      <trkpt lat="44.8227" lon="2.05142">
        <ele>538.53</ele>
        <time>2018-11-04T15:29:50.000Z</time>
      </trkpt>
      <trkpt lat="44.82272" lon="2.05141">
        <ele>539.08</ele>
        <time>2018-11-04T15:30:25.000Z</time>
      </trkpt>
      <trkpt lat="44.82273" lon="2.05138">
        <ele>539.05</ele>
        <time>2018-11-04T15:30:45.000Z</time>
      </trkpt>
      <trkpt lat="44.82275" lon="2.0514">
        <ele>540.41</ele>
        <time>2018-11-04T15:31:21.000Z</time>
      </trkpt>
      <trkpt lat="44.82274" lon="2.0514">
        <ele>539.22</ele>
        <time>2018-11-04T15:31:40.000Z</time>
      </trkpt>
      <trkpt lat="44.82272" lon="2.05144">
        <ele>534.56</ele>
        <time>2018-11-04T15:32:16.000Z</time>
      </trkpt>
      <trkpt lat="44.8226" lon="2.05176">
        <ele>521.92</ele>
        <time>2018-11-04T15:32:34.000Z</time>
      </trkpt>
      <trkpt lat="44.82245" lon="2.05221">
        <ele>533.7</ele>
        <time>2018-11-04T15:32:52.000Z</time>
      </trkpt>
      <trkpt lat="44.82209" lon="2.05277">
        <ele>548.95</ele>
        <time>2018-11-04T15:33:10.000Z</time>
      </trkpt>
      <trkpt lat="44.82201" lon="2.05291">
        <ele>548.26</ele>
        <time>2018-11-04T15:33:28.000Z</time>
      </trkpt>
      <trkpt lat="44.82188" lon="2.05302">
        <ele>538.63</ele>
        <time>2018-11-04T15:33:47.000Z</time>
      </trkpt>
      <trkpt lat="44.82154" lon="2.05337">
        <ele>536.48</ele>
        <time>2018-11-04T15:34:06.000Z</time>
      </trkpt>
      <trkpt lat="44.82143" lon="2.05337">
        <ele>543.64</ele>
        <time>2018-11-04T15:34:25.000Z</time>
      </trkpt>
      <trkpt lat="44.82122" lon="2.05349">
        <ele>533.61</ele>
        <time>2018-11-04T15:34:43.000Z</time>
      </trkpt>
      <trkpt lat="44.82119" lon="2.05372">
        <ele>531.07</ele>
        <time>2018-11-04T15:35:02.000Z</time>
      </trkpt>
      <trkpt lat="44.82096" lon="2.05403">
        <ele>531.03</ele>
        <time>2018-11-04T15:35:20.000Z</time>
      </trkpt>
      <trkpt lat="44.82089" lon="2.05449">
        <ele>542.94</ele>
        <time>2018-11-04T15:35:38.000Z</time>
      </trkpt>
      <trkpt lat="44.82079" lon="2.05467">
        <ele>538.11</ele>
        <time>2018-11-04T15:35:56.000Z</time>
      </trkpt>
      <trkpt lat="44.82068" lon="2.05501">
        <ele>528.96</ele>
        <time>2018-11-04T15:36:14.000Z</time>
      </trkpt>
      <trkpt lat="44.82082" lon="2.05533">
        <ele>537.73</ele>
        <time>2018-11-04T15:36:32.000Z</time>
      </trkpt>
      <trkpt lat="44.82092" lon="2.05558">
        <ele>533.5</ele>
        <time>2018-11-04T15:36:52.000Z</time>
      </trkpt>
      <trkpt lat="44.82097" lon="2.0558">
        <ele>523.86</ele>
        <time>2018-11-04T15:37:12.000Z</time>
      </trkpt>
      <trkpt lat="44.82113" lon="2.05593">
        <ele>558.53</ele>
        <time>2018-11-04T15:37:30.000Z</time>
      </trkpt>
      <trkpt lat="44.82094" lon="2.05644">
        <ele>536.55</ele>
        <time>2018-11-04T15:37:48.000Z</time>
      </trkpt>
      <trkpt lat="44.82092" lon="2.0568">
        <ele>532.64</ele>
        <time>2018-11-04T15:38:06.000Z</time>
      </trkpt>
      <trkpt lat="44.82106" lon="2.05733">
        <ele>536.73</ele>
        <time>2018-11-04T15:38:25.000Z</time>
      </trkpt>
      <trkpt lat="44.82121" lon="2.05737">
        <ele>534.44</ele>
        <time>2018-11-04T15:38:43.000Z</time>
      </trkpt>
      <trkpt lat="44.82126" lon="2.05759">
        <ele>529.38</ele>
        <time>2018-11-04T15:39:02.000Z</time>
      </trkpt>
      <trkpt lat="44.82138" lon="2.05775">
        <ele>524.76</ele>
        <time>2018-11-04T15:39:21.000Z</time>
      </trkpt>
      <trkpt lat="44.82147" lon="2.05779">
        <ele>93.13</ele>
        <time>2018-11-04T15:39:32.000Z</time>
      </trkpt>
      <trkpt lat="44.82157" lon="2.05783">
        <ele>524.91</ele>
        <time>2018-11-04T15:39:42.000Z</time>
      </trkpt>
      <trkpt lat="44.82169" lon="2.05788">
        <ele>527</ele>
        <time>2018-11-04T15:39:52.000Z</time>
      </trkpt>
      <trkpt lat="44.82177" lon="2.05791">
        <ele>533.68</ele>
        <time>2018-11-04T15:40:17.000Z</time>
      </trkpt>
      <trkpt lat="44.82207" lon="2.05812">
        <ele>529.14</ele>
        <time>2018-11-04T15:40:36.000Z</time>
      </trkpt>
      <trkpt lat="44.82204" lon="2.05796">
        <ele>94.22</ele>
        <time>2018-11-04T15:40:50.000Z</time>
      </trkpt>
      <trkpt lat="44.82229" lon="2.0581">
        <ele>541.34</ele>
        <time>2018-11-04T15:41:00.000Z</time>
      </trkpt>
      <trkpt lat="44.82242" lon="2.05808">
        <ele>538.5</ele>
        <time>2018-11-04T15:41:10.000Z</time>
      </trkpt>
      <trkpt lat="44.82264" lon="2.05811">
        <ele>544.87</ele>
        <time>2018-11-04T15:41:28.000Z</time>
      </trkpt>
      <trkpt lat="44.82274" lon="2.05807">
        <ele>545.32</ele>
        <time>2018-11-04T15:41:46.000Z</time>
      </trkpt>
      <trkpt lat="44.82306" lon="2.05799">
        <ele>548.87</ele>
        <time>2018-11-04T15:42:05.000Z</time>
      </trkpt>
      <trkpt lat="44.82329" lon="2.05804">
        <ele>549.75</ele>
        <time>2018-11-04T15:42:23.000Z</time>
      </trkpt>
      <trkpt lat="44.82366" lon="2.05811">
        <ele>546.39</ele>
        <time>2018-11-04T15:42:41.000Z</time>
      </trkpt>
      <trkpt lat="44.82385" lon="2.05826">
        <ele>541.53</ele>
        <time>2018-11-04T15:43:00.000Z</time>
      </trkpt>
      <trkpt lat="44.82384" lon="2.05867">
        <ele>538.52</ele>
        <time>2018-11-04T15:43:19.000Z</time>
      </trkpt>
      <trkpt lat="44.82382" lon="2.05906">
        <ele>545.09</ele>
        <time>2018-11-04T15:43:37.000Z</time>
      </trkpt>
      <trkpt lat="44.82403" lon="2.05898">
        <ele>523.88</ele>
        <time>2018-11-04T15:43:55.000Z</time>
      </trkpt>
      <trkpt lat="44.82422" lon="2.05923">
        <ele>546.28</ele>
        <time>2018-11-04T15:44:13.000Z</time>
      </trkpt>
      <trkpt lat="44.82452" lon="2.05946">
        <ele>563.94</ele>
        <time>2018-11-04T15:44:31.000Z</time>
      </trkpt>
      <trkpt lat="44.82471" lon="2.05966">
        <ele>572.69</ele>
        <time>2018-11-04T15:44:49.000Z</time>
      </trkpt>
      <trkpt lat="44.825" lon="2.05991">
        <ele>570.37</ele>
        <time>2018-11-04T15:45:08.000Z</time>
      </trkpt>
      <trkpt lat="44.82503" lon="2.06007">
        <ele>567.55</ele>
        <time>2018-11-04T15:45:26.000Z</time>
      </trkpt>
      <trkpt lat="44.82534" lon="2.06025">
        <ele>544.92</ele>
        <time>2018-11-04T15:45:44.000Z</time>
      </trkpt>
      <trkpt lat="44.82527" lon="2.06022">
        <ele>538.19</ele>
        <time>2018-11-04T15:46:02.000Z</time>
      </trkpt>
      <trkpt lat="44.82536" lon="2.06029">
        <ele>539.41</ele>
        <time>2018-11-04T15:46:20.000Z</time>
      </trkpt>
      <trkpt lat="44.82543" lon="2.06036">
        <ele>96.79</ele>
        <time>2018-11-04T15:46:31.000Z</time>
      </trkpt>
      <trkpt lat="44.82567" lon="2.06042">
        <ele>551.44</ele>
        <time>2018-11-04T15:46:54.000Z</time>
      </trkpt>
      <trkpt lat="44.82567" lon="2.06045">
        <ele>552.36</ele>
        <time>2018-11-04T15:47:12.000Z</time>
      </trkpt>
      <trkpt lat="44.82565" lon="2.06044">
        <ele>552.29</ele>
        <time>2018-11-04T15:47:30.000Z</time>
      </trkpt>
      <trkpt lat="44.82575" lon="2.06053">
        <ele>552.49</ele>
        <time>2018-11-04T15:47:48.000Z</time>
      </trkpt>
      <trkpt lat="44.8259" lon="2.06074">
        <ele>556.01</ele>
        <time>2018-11-04T15:48:06.000Z</time>
      </trkpt>
      <trkpt lat="44.82598" lon="2.06086">
        <ele>558.93</ele>
        <time>2018-11-04T15:48:24.000Z</time>
      </trkpt>
      <trkpt lat="44.82609" lon="2.06108">
        <ele>553.65</ele>
        <time>2018-11-04T15:48:43.000Z</time>
      </trkpt>
      <trkpt lat="44.82607" lon="2.06108">
        <ele>555.73</ele>
        <time>2018-11-04T15:48:56.000Z</time>
      </trkpt>
      <trkpt lat="44.82605" lon="2.06108">
        <ele>557.43</ele>
        <time>2018-11-04T15:48:58.000Z</time>
        <extensions>
          <visugpx:TrkExtension xmlns:visugpx="https://www.visugpx.com/editgpx/">
            <visugpx:node>1</visugpx:node>
            </visugpx:TrkExtension>
        </extensions>
      </trkpt>
    </trkseg>
  </trk>
</gpx>